Observation data for Earth on 07/20/2019      Previous  Date       Current Mesonet Observations  Soil Data  Daily Summary Page  Observations in Plain Language
KEA1 200500Z 16012KT 28/14 A2997 RMK A01 T02760142  RH  044%=      5-min Rain = 0
KEA1 200501Z 16012KT 28/14 A2997 RMK A01 T02760142  RH  044%=      5-min Rain = 0
KEA1 200502Z 16012KT 28/14 A2997 RMK A01 T02750141  RH  044%=      5-min Rain = 0
KEA1 200503Z 16012KT 28/14 A2997 RMK A01 T02750141  RH  044%=      5-min Rain = 0
KEA1 200504Z 16011KT 28/14 A2997 RMK A01 T02750141  RH  044%=      5-min Rain = 0
KEA1 200505Z 16012KT 28/14 A2997 RMK A01 T02750142  RH  044%=      5-min Rain = 0
KEA1 200506Z 16012KT 28/14 A2997 RMK A01 T02750142  RH  044%=      5-min Rain = 0
KEA1 200507Z 16012KT 27/14 A2997 RMK A01 T02740142  RH  044%=      5-min Rain = 0
KEA1 200508Z 16011KT 28/14 A2997 RMK A01 T02750142  RH  044%=      5-min Rain = 0
KEA1 200509Z 16013KT 27/14 A2997 RMK A01 T02740142  RH  044%=      5-min Rain = 0
KEA1 200510Z 16013KT 27/14 A2997 RMK A01 T02740142  RH  044%=      5-min Rain = 0
KEA1 200511Z 16011KT 28/14 A2997 RMK A01 T02750142  RH  044%=      5-min Rain = 0
KEA1 200512Z 16011KT 27/14 A2997 RMK A01 T02740142  RH  044%=      5-min Rain = 0
KEA1 200513Z 17012KT 27/14 A2997 RMK A01 T02740142  RH  044%=      5-min Rain = 0
KEA1 200514Z 16013KT 28/14 A2997 RMK A01 T02750142  RH  044%=      5-min Rain = 0
KEA1 200515Z 16011KT 27/14 A2997 RMK A01 T02740142  RH  044%=      5-min Rain = 0
KEA1 200516Z 16012KT 27/14 A2997 RMK A01 T02740143  RH  044%=      5-min Rain = 0
KEA1 200517Z 16012KT 27/14 A2997 RMK A01 T02730143  RH  045%=      5-min Rain = 0
KEA1 200518Z 17012KT 27/14 A2997 RMK A01 T02730142  RH  045%=      5-min Rain = 0
KEA1 200519Z 16013KT 27/14 A2997 RMK A01 T02730142  RH  045%=      5-min Rain = 0
KEA1 200520Z 16012KT 27/14 A2997 RMK A01 T02740143  RH  045%=      5-min Rain = 0
KEA1 200521Z 16012KT 27/14 A2997 RMK A01 T02730143  RH  045%=      5-min Rain = 0
KEA1 200522Z 17012KT 27/14 A2997 RMK A01 T02730143  RH  045%=      5-min Rain = 0
KEA1 200523Z 17011KT 27/14 A2997 RMK A01 T02720143  RH  045%=      5-min Rain = 0
KEA1 200524Z 17012KT 27/14 A2997 RMK A01 T02720143  RH  045%=      5-min Rain = 0
KEA1 200525Z 17013KT 27/14 A2997 RMK A01 T02710143  RH  045%=      5-min Rain = 0
KEA1 200526Z 17012KT 27/14 A2997 RMK A01 T02710143  RH  045%=      5-min Rain = 0
KEA1 200527Z 16012KT 27/14 A2997 RMK A01 T02710143  RH  045%=      5-min Rain = 0
KEA1 200528Z 17012KT 27/14 A2997 RMK A01 T02700143  RH  046%=      5-min Rain = 0
KEA1 200529Z 16012KT 27/14 A2997 RMK A01 T02700143  RH  046%=      5-min Rain = 0
KEA1 200530Z 16012KT 27/14 A2997 RMK A01 T02700143  RH  046%=      5-min Rain = 0
KEA1 200531Z 16012KT 27/14 A2997 RMK A01 T02700143  RH  046%=      5-min Rain = 0
KEA1 200532Z 17014KT 27/14 A2997 RMK A01 T02700143  RH  046%=      5-min Rain = 0
KEA1 200533Z 16014KT 27/14 A2997 RMK A01 T02700143  RH  046%=      5-min Rain = 0
KEA1 200534Z 17014KT 27/14 A2997 RMK A01 T02700143  RH  046%=      5-min Rain = 0
KEA1 200535Z 16014KT 27/14 A2997 RMK A01 T02700143  RH  045%=      5-min Rain = 0
KEA1 200536Z 16013KT 27/14 A2997 RMK A01 T02710142  RH  045%=      5-min Rain = 0
KEA1 200537Z 17014KT 27/14 A2997 RMK A01 T02710142  RH  045%=      5-min Rain = 0
KEA1 200538Z 17015KT 27/14 A2997 RMK A01 T02710142  RH  045%=      5-min Rain = 0
KEA1 200539Z 16016KT 27/14 A2997 RMK A01 T02710142  RH  045%=      5-min Rain = 0
KEA1 200540Z 16015G20KT 27/14 A2997 RMK A01 T02720142  RH  045%=      5-min Rain = 0
KEA1 200541Z 17016KT 27/14 A2997 RMK A01 T02720142  RH  045%=      5-min Rain = 0
KEA1 200542Z 17014KT 27/14 A2997 RMK A01 T02720142  RH  045%=      5-min Rain = 0
KEA1 200543Z 16015KT 27/14 A2997 RMK A01 T02720141  RH  045%=      5-min Rain = 0
KEA1 200544Z 17016KT 27/14 A2997 RMK A01 T02720141  RH  045%=      5-min Rain = 0
KEA1 200545Z 17015KT 27/14 A2997 RMK A01 T02720141  RH  045%=      5-min Rain = 0
KEA1 200546Z 16017KT 27/14 A2997 RMK A01 T02720141  RH  045%=      5-min Rain = 0
KEA1 200547Z 17015KT 27/14 A2997 RMK A01 T02720141  RH  044%=      5-min Rain = 0
KEA1 200548Z 17015KT 27/14 A2997 RMK A01 T02720141  RH  044%=      5-min Rain = 0
KEA1 200549Z 17017KT 27/14 A2997 RMK A01 T02720141  RH  044%=      5-min Rain = 0
KEA1 200550Z 16015KT 27/14 A2997 RMK A01 T02720140  RH  044%=      5-min Rain = 0
KEA1 200551Z 16016KT 27/14 A2997 RMK A01 T02730140  RH  044%=      5-min Rain = 0
KEA1 200552Z 17016KT 27/14 A2997 RMK A01 T02730140  RH  044%=      5-min Rain = 0
KEA1 200553Z 17017KT 27/14 A2997 RMK A01 T02730140  RH  044%=      5-min Rain = 0
KEA1 200554Z 16014KT 27/14 A2997 RMK A01 T02730139  RH  044%=      5-min Rain = 0
KEA1 200555Z 17016KT 27/14 A2997 RMK A01 T02720139  RH  044%=      5-min Rain = 0
KEA1 200556Z 16016KT 27/14 A2997 RMK A01 T02720138  RH  044%=      5-min Rain = 0
KEA1 200557Z 17017KT 27/14 A2997 RMK A01 T02720138  RH  044%=      5-min Rain = 0
KEA1 200558Z 16015KT 27/14 A2997 RMK A01 T02730138  RH  043%=      5-min Rain = 0
KEA1 200559Z 17015KT 27/14 A2997 RMK A01 T02730138  RH  043%=      5-min Rain = 0
KEA1 200600Z 16015KT 27/14 A2997 RMK A01 T02730138  RH  043%=      5-min Rain = 0
KEA1 200601Z 17015KT 27/14 A2997 RMK A01 T02720137  RH  043%=      5-min Rain = 0
KEA1 200602Z 16015KT 27/14 A2997 RMK A01 T02720137  RH  043%=      5-min Rain = 0
KEA1 200603Z 17016KT 27/14 A2997 RMK A01 T02720137  RH  043%=      5-min Rain = 0
KEA1 200604Z 17017KT 27/14 A2997 RMK A01 T02720136  RH  043%=      5-min Rain = 0
KEA1 200605Z 17016KT 27/14 A2997 RMK A01 T02730135  RH  043%=      5-min Rain = 0
KEA1 200606Z 17016KT 27/14 A2997 RMK A01 T02730136  RH  043%=      5-min Rain = 0
KEA1 200607Z 17015KT 27/14 A2997 RMK A01 T02730135  RH  043%=      5-min Rain = 0
KEA1 200608Z 17014KT 27/14 A2997 RMK A01 T02720135  RH  043%=      5-min Rain = 0
KEA1 200609Z 17014KT 27/14 A2997 RMK A01 T02720135  RH  043%=      5-min Rain = 0
KEA1 200610Z 17016KT 27/14 A2997 RMK A01 T02720135  RH  043%=      5-min Rain = 0
KEA1 200611Z 17016KT 27/13 A2997 RMK A01 T02720134  RH  043%=      5-min Rain = 0
KEA1 200612Z 17015KT 27/13 A2997 RMK A01 T02720133  RH  042%=      5-min Rain = 0
KEA1 200613Z 17015G20KT 27/13 A2997 RMK A01 T02720133  RH  042%=      5-min Rain = 0
KEA1 200614Z 17016KT 27/13 A2997 RMK A01 T02720133  RH  042%=      5-min Rain = 0
KEA1 200615Z 18017KT 27/13 A2997 RMK A01 T02720132  RH  042%=      5-min Rain = 0
KEA1 200616Z 17016KT 27/13 A2997 RMK A01 T02730132  RH  042%=      5-min Rain = 0
KEA1 200617Z 18015G21KT 27/13 A2997 RMK A01 T02730132  RH  042%=      5-min Rain = 0
KEA1 200618Z 18016KT 27/13 A2997 RMK A01 T02730132  RH  042%=      5-min Rain = 0
KEA1 200619Z 17016KT 27/13 A2997 RMK A01 T02730131  RH  042%=      5-min Rain = 0
KEA1 200620Z 18015KT 27/13 A2997 RMK A01 T02730131  RH  042%=      5-min Rain = 0
KEA1 200621Z 18016KT 27/13 A2997 RMK A01 T02730131  RH  042%=      5-min Rain = 0
KEA1 200622Z 18015KT 27/13 A2997 RMK A01 T02720130  RH  042%=      5-min Rain = 0
KEA1 200623Z 18015KT 27/13 A2997 RMK A01 T02720130  RH  041%=      5-min Rain = 0
KEA1 200624Z 17016KT 27/13 A2997 RMK A01 T02720130  RH  041%=      5-min Rain = 0
KEA1 200625Z 17014KT 27/13 A2997 RMK A01 T02720129  RH  041%=      5-min Rain = 0
KEA1 200626Z 17018G23KT 27/13 A2997 RMK A01 T02720129  RH  041%=      5-min Rain = 0
KEA1 200627Z 18017KT 27/13 A2997 RMK A01 T02730129  RH  041%=      5-min Rain = 0
KEA1 200628Z 17016KT 27/13 A2997 RMK A01 T02730129  RH  041%=      5-min Rain = 0
KEA1 200629Z 17015G20KT 27/13 A2997 RMK A01 T02730129  RH  041%=      5-min Rain = 0
KEA1 200630Z 17016G21KT 27/13 A2997 RMK A01 T02730128  RH  041%=      5-min Rain = 0
KEA1 200631Z 17017KT 27/13 A2997 RMK A01 T02730128  RH  041%=      5-min Rain = 0
KEA1 200632Z 17015KT 27/13 A2997 RMK A01 T02730128  RH  041%=      5-min Rain = 0
KEA1 200633Z 17016KT 27/13 A2997 RMK A01 T02720128  RH  041%=      5-min Rain = 0
KEA1 200634Z 18014KT 27/13 A2997 RMK A01 T02720128  RH  041%=      5-min Rain = 0
KEA1 200635Z 17017KT 27/13 A2997 RMK A01 T02710128  RH  041%=      5-min Rain = 0
KEA1 200636Z 17018KT 27/13 A2997 RMK A01 T02710127  RH  041%=      5-min Rain = 0
KEA1 200637Z 18017G22KT 27/13 A2997 RMK A01 T02710127  RH  041%=      5-min Rain = 0
KEA1 200638Z 17013KT 27/13 A2997 RMK A01 T02720127  RH  041%=      5-min Rain = 0
KEA1 200639Z 18013G19KT 27/13 A2997 RMK A01 T02710127  RH  041%=      5-min Rain = 0
KEA1 200640Z 18015KT 27/13 A2997 RMK A01 T02700127  RH  041%=      5-min Rain = 0
KEA1 200641Z 18016KT 27/13 A2997 RMK A01 T02690127  RH  041%=      5-min Rain = 0
KEA1 200642Z 18016KT 27/13 A2997 RMK A01 T02690127  RH  041%=      5-min Rain = 0
KEA1 200643Z 18014KT 27/13 A2997 RMK A01 T02690126  RH  041%=      5-min Rain = 0
KEA1 200644Z 18016KT 27/13 A2997 RMK A01 T02690127  RH  041%=      5-min Rain = 0
KEA1 200645Z 17015KT 27/13 A2997 RMK A01 T02690127  RH  041%=      5-min Rain = 0
KEA1 200646Z 17015G20KT 27/13 A2997 RMK A01 T02680126  RH  041%=      5-min Rain = 0
KEA1 200647Z 17013KT 27/13 A2997 RMK A01 T02680126  RH  041%=      5-min Rain = 0
KEA1 200648Z 17015KT 27/13 A2997 RMK A01 T02670126  RH  042%=      5-min Rain = 0
KEA1 200649Z 17014KT 27/13 A2997 RMK A01 T02670126  RH  042%=      5-min Rain = 0
KEA1 200650Z 17016KT 27/13 A2997 RMK A01 T02670126  RH  042%=      5-min Rain = 0
KEA1 200651Z 17014KT 27/13 A2997 RMK A01 T02670126  RH  042%=      5-min Rain = 0
KEA1 200652Z 17015KT 27/13 A2997 RMK A01 T02670126  RH  042%=      5-min Rain = 0
KEA1 200653Z 17016KT 27/13 A2997 RMK A01 T02670126  RH  042%=      5-min Rain = 0
KEA1 200654Z 17015KT 27/13 A2997 RMK A01 T02670126  RH  041%=      5-min Rain = 0
KEA1 200655Z 17013KT 27/13 A2997 RMK A01 T02670126  RH  042%=      5-min Rain = 0
KEA1 200656Z 17015KT 27/13 A2997 RMK A01 T02660126  RH  042%=      5-min Rain = 0
KEA1 200657Z 17014KT 27/13 A2997 RMK A01 T02660126  RH  042%=      5-min Rain = 0
KEA1 200658Z 17014KT 27/13 A2997 RMK A01 T02650126  RH  042%=      5-min Rain = 0
KEA1 200659Z 17015KT 27/13 A2997 RMK A01 T02650125  RH  042%=      5-min Rain = 0
KEA1 200700Z 17014KT 26/13 A2997 RMK A01 T02640126  RH  042%=      5-min Rain = 0
KEA1 200701Z 17014KT 26/13 A2997 RMK A01 T02640125  RH  042%=      5-min Rain = 0
KEA1 200702Z 17012KT 26/13 A2997 RMK A01 T02640125  RH  042%=      5-min Rain = 0
KEA1 200703Z 17014KT 26/13 A2997 RMK A01 T02630125  RH  042%=      5-min Rain = 0
KEA1 200704Z 17014KT 26/13 A2997 RMK A01 T02620125  RH  042%=      5-min Rain = 0
KEA1 200705Z 17014KT 26/13 A2997 RMK A01 T02620125  RH  042%=      5-min Rain = 0
KEA1 200706Z 17012KT 26/13 A2997 RMK A01 T02620125  RH  042%=      5-min Rain = 0
KEA1 200707Z 18013KT 26/13 A2997 RMK A01 T02620125  RH  042%=      5-min Rain = 0
KEA1 200708Z 18014KT 26/13 A2997 RMK A01 T02620125  RH  043%=      5-min Rain = 0
KEA1 200709Z 17013KT 26/13 A2998 RMK A01 T02620125  RH  043%=      5-min Rain = 0
KEA1 200710Z 17012KT 26/13 A2998 RMK A01 T02610125  RH  043%=      5-min Rain = 0
KEA1 200711Z 17014G19KT 26/13 A2997 RMK A01 T02600125  RH  043%=      5-min Rain = 0
KEA1 200712Z 18014G19KT 26/12 A2997 RMK A01 T02600124  RH  043%=      5-min Rain = 0
KEA1 200713Z 17014KT 26/12 A2997 RMK A01 T02600124  RH  043%=      5-min Rain = 0
KEA1 200714Z 17015KT 26/12 A2997 RMK A01 T02600124  RH  043%=      5-min Rain = 0
KEA1 200715Z 17014KT 26/12 A2997 RMK A01 T02600124  RH  043%=      5-min Rain = 0
KEA1 200716Z 17014KT 26/13 A2997 RMK A01 T02610125  RH  043%=      5-min Rain = 0
KEA1 200717Z 17016KT 26/12 A2997 RMK A01 T02610124  RH  043%=      5-min Rain = 0
KEA1 200718Z 17015KT 26/12 A2997 RMK A01 T02610124  RH  043%=      5-min Rain = 0
KEA1 200719Z 17014KT 26/12 A2997 RMK A01 T02610124  RH  043%=      5-min Rain = 0
KEA1 200720Z 17014KT 26/12 A2997 RMK A01 T02600124  RH  043%=      5-min Rain = 0
KEA1 200721Z 17014KT 26/12 A2997 RMK A01 T02600124  RH  043%=      5-min Rain = 0
KEA1 200722Z 17014KT 26/12 A2997 RMK A01 T02600124  RH  043%=      5-min Rain = 0
KEA1 200723Z 17013KT 26/12 A2998 RMK A01 T02600124  RH  043%=      5-min Rain = 0
KEA1 200724Z 17013KT 26/12 A2998 RMK A01 T02600124  RH  043%=      5-min Rain = 0
KEA1 200725Z 17014KT 26/12 A2998 RMK A01 T02590123  RH  043%=      5-min Rain = 0
KEA1 200726Z 17012KT 26/12 A2998 RMK A01 T02580124  RH  043%=      5-min Rain = 0
KEA1 200727Z 17012KT 26/12 A2998 RMK A01 T02580123  RH  043%=      5-min Rain = 0
KEA1 200728Z 17013KT 26/12 A2998 RMK A01 T02570123  RH  043%=      5-min Rain = 0
KEA1 200729Z 17014KT 26/12 A2998 RMK A01 T02570123  RH  043%=      5-min Rain = 0
KEA1 200730Z 17013KT 26/12 A2998 RMK A01 T02570123  RH  043%=      5-min Rain = 0
KEA1 200731Z 17012KT 26/12 A2998 RMK A01 T02560123  RH  044%=      5-min Rain = 0
KEA1 200732Z 17013KT 26/12 A2998 RMK A01 T02560123  RH  044%=      5-min Rain = 0
KEA1 200733Z 17011KT 26/12 A2998 RMK A01 T02560124  RH  044%=      5-min Rain = 0
KEA1 200734Z 17013KT 26/12 A2998 RMK A01 T02550123  RH  044%=      5-min Rain = 0
KEA1 200735Z 17012KT 26/12 A2998 RMK A01 T02550123  RH  044%=      5-min Rain = 0
KEA1 200736Z 17012KT 26/12 A2998 RMK A01 T02550123  RH  044%=      5-min Rain = 0
KEA1 200737Z 17012KT 26/12 A2998 RMK A01 T02550123  RH  044%=      5-min Rain = 0
KEA1 200738Z 18012KT 26/12 A2998 RMK A01 T02550123  RH  044%=      5-min Rain = 0
KEA1 200739Z 18014KT 26/12 A2998 RMK A01 T02550123  RH  044%=      5-min Rain = 0
KEA1 200740Z 17014KT 26/12 A2998 RMK A01 T02550123  RH  044%=      5-min Rain = 0
KEA1 200741Z 17011KT 26/12 A2998 RMK A01 T02550123  RH  044%=      5-min Rain = 0
KEA1 200742Z 17013KT 26/12 A2998 RMK A01 T02550123  RH  044%=      5-min Rain = 0
KEA1 200743Z 17013KT 25/12 A2998 RMK A01 T02540123  RH  044%=      5-min Rain = 0
KEA1 200744Z 17011KT 26/12 A2998 RMK A01 T02550123  RH  044%=      5-min Rain = 0
KEA1 200745Z 17013KT 25/12 A2998 RMK A01 T02540123  RH  044%=      5-min Rain = 0
KEA1 200746Z 17012KT 25/12 A2998 RMK A01 T02540123  RH  044%=      5-min Rain = 0
KEA1 200747Z 17012KT 25/12 A2998 RMK A01 T02530122  RH  044%=      5-min Rain = 0
KEA1 200748Z 17011KT 25/12 A2998 RMK A01 T02530122  RH  044%=      5-min Rain = 0
KEA1 200749Z 17012KT 25/12 A2998 RMK A01 T02530122  RH  044%=      5-min Rain = 0
KEA1 200750Z 17012KT 25/12 A2998 RMK A01 T02520122  RH  044%=      5-min Rain = 0
KEA1 200751Z 17010KT 25/12 A2998 RMK A01 T02520122  RH  044%=      5-min Rain = 0
KEA1 200752Z 17012KT 25/12 A2998 RMK A01 T02520123  RH  044%=      5-min Rain = 0
KEA1 200753Z 17012KT 25/12 A2998 RMK A01 T02520123  RH  045%=      5-min Rain = 0
KEA1 200754Z 17012KT 25/12 A2998 RMK A01 T02510122  RH  045%=      5-min Rain = 0
KEA1 200755Z 17011KT 25/12 A2998 RMK A01 T02510122  RH  045%=      5-min Rain = 0
KEA1 200756Z 17012KT 25/12 A2998 RMK A01 T02510122  RH  045%=      5-min Rain = 0
KEA1 200757Z 17010KT 25/12 A2998 RMK A01 T02500122  RH  045%=      5-min Rain = 0
KEA1 200758Z 17013KT 25/12 A2998 RMK A01 T02500122  RH  045%=      5-min Rain = 0
KEA1 200759Z 17012KT 25/12 A2998 RMK A01 T02500122  RH  045%=      5-min Rain = 0
KEA1 200800Z 18010KT 25/12 A2998 RMK A01 T02500122  RH  045%=      5-min Rain = 0
KEA1 200801Z 17010KT 25/12 A2998 RMK A01 T02500122  RH  045%=      5-min Rain = 0
KEA1 200802Z 18012KT 25/12 A2998 RMK A01 T02490122  RH  045%=      5-min Rain = 0
KEA1 200803Z 17012KT 25/12 A2998 RMK A01 T02490122  RH  045%=      5-min Rain = 0
KEA1 200804Z 17012KT 25/12 A2998 RMK A01 T02490122  RH  045%=      5-min Rain = 0
KEA1 200805Z 18013KT 25/12 A2998 RMK A01 T02480122  RH  045%=      5-min Rain = 0
KEA1 200806Z 18011KT 25/12 A2998 RMK A01 T02490122  RH  045%=      5-min Rain = 0
KEA1 200807Z 18012KT 25/12 A2998 RMK A01 T02490122  RH  045%=      5-min Rain = 0
KEA1 200808Z 18011KT 25/12 A2998 RMK A01 T02490122  RH  045%=      5-min Rain = 0
KEA1 200809Z 18010KT 25/12 A2998 RMK A01 T02480122  RH  045%=      5-min Rain = 0
KEA1 200810Z 18011KT 25/12 A2998 RMK A01 T02480122  RH  045%=      5-min Rain = 0
KEA1 200811Z 18010KT 25/12 A2998 RMK A01 T02470122  RH  045%=      5-min Rain = 0
KEA1 200812Z 18011KT 25/12 A2998 RMK A01 T02470122  RH  046%=      5-min Rain = 0
KEA1 200813Z 18011KT 25/12 A2998 RMK A01 T02470122  RH  046%=      5-min Rain = 0
KEA1 200814Z 18010KT 25/12 A2998 RMK A01 T02470122  RH  046%=      5-min Rain = 0
KEA1 200815Z 17011KT 25/12 A2998 RMK A01 T02470122  RH  046%=      5-min Rain = 0
KEA1 200816Z 18010KT 25/12 A2998 RMK A01 T02470122  RH  046%=      5-min Rain = 0
KEA1 200817Z 18012KT 25/12 A2998 RMK A01 T02470122  RH  046%=      5-min Rain = 0
KEA1 200818Z 18010KT 25/12 A2998 RMK A01 T02470122  RH  046%=      5-min Rain = 0
KEA1 200819Z 18011KT 25/12 A2998 RMK A01 T02460122  RH  046%=      5-min Rain = 0
KEA1 200820Z 18011KT 25/12 A2998 RMK A01 T02460122  RH  046%=      5-min Rain = 0
KEA1 200821Z 18010KT 25/12 A2998 RMK A01 T02460123  RH  046%=      5-min Rain = 0
KEA1 200822Z 18010KT 25/12 A2998 RMK A01 T02460122  RH  046%=      5-min Rain = 0
KEA1 200823Z 18011KT 25/12 A2998 RMK A01 T02450122  RH  046%=      5-min Rain = 0
KEA1 200824Z 18010KT 25/12 A2998 RMK A01 T02450122  RH  046%=      5-min Rain = 0
KEA1 200825Z 17010KT 25/12 A2998 RMK A01 T02450122  RH  046%=      5-min Rain = 0
KEA1 200826Z 17011KT 24/12 A2998 RMK A01 T02440122  RH  046%=      5-min Rain = 0
KEA1 200827Z 17011KT 24/12 A2998 RMK A01 T02440122  RH  046%=      5-min Rain = 0
KEA1 200828Z 17010KT 24/12 A2998 RMK A01 T02440122  RH  046%=      5-min Rain = 0
KEA1 200829Z 17011KT 24/12 A2998 RMK A01 T02440122  RH  046%=      5-min Rain = 0
KEA1 200830Z 17010KT 24/12 A2998 RMK A01 T02440122  RH  046%=      5-min Rain = 0
KEA1 200831Z 17011KT 24/12 A2998 RMK A01 T02440122  RH  046%=      5-min Rain = 0
KEA1 200832Z 17010KT 24/12 A2998 RMK A01 T02440122  RH  046%=      5-min Rain = 0
KEA1 200833Z 17010KT 24/12 A2998 RMK A01 T02440122  RH  047%=      5-min Rain = 0
KEA1 200834Z 17011KT 24/12 A2998 RMK A01 T02430122  RH  047%=      5-min Rain = 0
KEA1 200835Z 17011KT 24/12 A2998 RMK A01 T02440122  RH  047%=      5-min Rain = 0
KEA1 200836Z 17010KT 24/12 A2998 RMK A01 T02440122  RH  046%=      5-min Rain = 0
KEA1 200837Z 17010KT 24/12 A2998 RMK A01 T02440122  RH  047%=      5-min Rain = 0
KEA1 200838Z 17011KT 24/12 A2998 RMK A01 T02440122  RH  047%=      5-min Rain = 0
KEA1 200839Z 17009KT 24/12 A2998 RMK A01 T02430122  RH  047%=      5-min Rain = 0
KEA1 200840Z 17010KT 24/12 A2998 RMK A01 T02430122  RH  047%=      5-min Rain = 0
KEA1 200841Z 17010KT 24/12 A2998 RMK A01 T02420122  RH  047%=      5-min Rain = 0
KEA1 200842Z 17012KT 24/12 A2998 RMK A01 T02420122  RH  047%=      5-min Rain = 0
KEA1 200843Z 17010KT 24/12 A2998 RMK A01 T02420122  RH  047%=      5-min Rain = 0
KEA1 200844Z 17010KT 24/12 A2998 RMK A01 T02430122  RH  047%=      5-min Rain = 0
KEA1 200845Z 16010KT 24/12 A2998 RMK A01 T02430122  RH  047%=      5-min Rain = 0
KEA1 200846Z 17010KT 24/12 A2998 RMK A01 T02430122  RH  047%=      5-min Rain = 0
KEA1 200847Z 16010KT 24/12 A2998 RMK A01 T02420122  RH  047%=      5-min Rain = 0
KEA1 200848Z 17011KT 24/12 A2998 RMK A01 T02420122  RH  047%=      5-min Rain = 0
KEA1 200849Z 16010KT 24/12 A2998 RMK A01 T02410122  RH  047%=      5-min Rain = 0
KEA1 200850Z 17010KT 24/12 A2998 RMK A01 T02410122  RH  047%=      5-min Rain = 0
KEA1 200851Z 17010KT 24/12 A2998 RMK A01 T02420122  RH  047%=      5-min Rain = 0
KEA1 200852Z 17010KT 24/12 A2998 RMK A01 T02420122  RH  047%=      5-min Rain = 0
KEA1 200853Z 17010KT 24/12 A2998 RMK A01 T02420122  RH  047%=      5-min Rain = 0
KEA1 200854Z 17009KT 24/12 A2998 RMK A01 T02410122  RH  047%=      5-min Rain = 0
KEA1 200855Z 17009KT 24/12 A2998 RMK A01 T02410122  RH  047%=      5-min Rain = 0
KEA1 200856Z 17009KT 24/12 A2998 RMK A01 T02400122  RH  048%=      5-min Rain = 0
KEA1 200857Z 17009KT 24/12 A2998 RMK A01 T02400122  RH  048%=      5-min Rain = 0
KEA1 200858Z 17008KT 24/12 A2998 RMK A01 T02400122  RH  048%=      5-min Rain = 0
KEA1 200859Z 17009KT 24/12 A2998 RMK A01 T02390122  RH  048%=      5-min Rain = 0
KEA1 200900Z 17008KT 24/12 A2998 RMK A01 T02380122  RH  048%=      5-min Rain = 0
KEA1 200901Z 17009KT 24/12 A2997 RMK A01 T02370122  RH  048%=      5-min Rain = 0
KEA1 200902Z 17009KT 24/12 A2997 RMK A01 T02360122  RH  049%=      5-min Rain = 0
KEA1 200903Z 17010KT 24/12 A2997 RMK A01 T02370122  RH  049%=      5-min Rain = 0
KEA1 200904Z 17008KT 24/12 A2997 RMK A01 T02370122  RH  048%=      5-min Rain = 0
KEA1 200905Z 17008KT 24/12 A2997 RMK A01 T02370122  RH  048%=      5-min Rain = 0
KEA1 200906Z 17008KT 24/12 A2997 RMK A01 T02380123  RH  049%=      5-min Rain = 0
KEA1 200907Z 17008KT 24/12 A2997 RMK A01 T02370122  RH  049%=      5-min Rain = 0
KEA1 200908Z 16008KT 24/12 A2997 RMK A01 T02360122  RH  049%=      5-min Rain = 0
KEA1 200909Z 17008KT 24/12 A2997 RMK A01 T02360122  RH  049%=      5-min Rain = 0
KEA1 200910Z 17008KT 24/12 A2997 RMK A01 T02350123  RH  049%=      5-min Rain = 0
KEA1 200911Z 17008KT 24/12 A2997 RMK A01 T02350123  RH  049%=      5-min Rain = 0
KEA1 200912Z 17009KT 24/12 A2997 RMK A01 T02350122  RH  049%=      5-min Rain = 0
KEA1 200913Z 17008KT 24/12 A2997 RMK A01 T02350123  RH  049%=      5-min Rain = 0
KEA1 200914Z 17009KT 24/12 A2997 RMK A01 T02350123  RH  049%=      5-min Rain = 0
KEA1 200915Z 16009KT 24/12 A2997 RMK A01 T02350122  RH  049%=      5-min Rain = 0
KEA1 200916Z 17009KT 24/12 A2997 RMK A01 T02350122  RH  049%=      5-min Rain = 0
KEA1 200917Z 17008KT 24/12 A2997 RMK A01 T02350122  RH  049%=      5-min Rain = 0
KEA1 200918Z 17008KT 24/12 A2997 RMK A01 T02350123  RH  049%=      5-min Rain = 0
KEA1 200919Z 17008KT 24/12 A2997 RMK A01 T02350123  RH  049%=      5-min Rain = 0
KEA1 200920Z 16008KT 24/12 A2997 RMK A01 T02350123  RH  049%=      5-min Rain = 0
KEA1 200921Z 17008KT 24/12 A2997 RMK A01 T02350123  RH  049%=      5-min Rain = 0
KEA1 200922Z 17006KT 23/12 A2997 RMK A01 T02340123  RH  049%=      5-min Rain = 0
KEA1 200923Z 17007KT 23/12 A2997 RMK A01 T02340123  RH  049%=      5-min Rain = 0
KEA1 200924Z 17007KT 23/12 A2997 RMK A01 T02340123  RH  050%=      5-min Rain = 0
KEA1 200925Z 16007KT 23/12 A2997 RMK A01 T02340123  RH  050%=      5-min Rain = 0
KEA1 200926Z 17007KT 23/12 A2997 RMK A01 T02340123  RH  050%=      5-min Rain = 0
KEA1 200927Z 17007KT 23/12 A2997 RMK A01 T02340123  RH  050%=      5-min Rain = 0
KEA1 200928Z 17007KT 23/12 A2997 RMK A01 T02330123  RH  050%=      5-min Rain = 0
KEA1 200929Z 16008KT 23/12 A2997 RMK A01 T02330123  RH  050%=      5-min Rain = 0
KEA1 200930Z 16007KT 23/12 A2997 RMK A01 T02330123  RH  050%=      5-min Rain = 0
KEA1 200931Z 16008KT 23/12 A2997 RMK A01 T02330123  RH  050%=      5-min Rain = 0
KEA1 200932Z 16008KT 23/12 A2997 RMK A01 T02330123  RH  050%=      5-min Rain = 0
KEA1 200933Z 16008KT 23/12 A2997 RMK A01 T02320123  RH  050%=      5-min Rain = 0
KEA1 200934Z 15008KT 23/12 A2997 RMK A01 T02320123  RH  050%=      5-min Rain = 0
KEA1 200935Z 16008KT 23/12 A2997 RMK A01 T02320123  RH  050%=      5-min Rain = 0
KEA1 200936Z 16008KT 23/12 A2997 RMK A01 T02330123  RH  050%=      5-min Rain = 0
KEA1 200937Z 16008KT 23/12 A2997 RMK A01 T02330123  RH  050%=      5-min Rain = 0
KEA1 200938Z 16008KT 23/12 A2997 RMK A01 T02330123  RH  050%=      5-min Rain = 0
KEA1 200939Z 16007KT 23/12 A2997 RMK A01 T02320124  RH  050%=      5-min Rain = 0
KEA1 200940Z 16008KT 23/12 A2997 RMK A01 T02310123  RH  051%=      5-min Rain = 0
KEA1 200941Z 15007KT 23/12 A2997 RMK A01 T02310123  RH  051%=      5-min Rain = 0
KEA1 200942Z 15008KT 23/12 A2997 RMK A01 T02310124  RH  051%=      5-min Rain = 0
KEA1 200943Z 15007KT 23/12 A2997 RMK A01 T02310123  RH  051%=      5-min Rain = 0
KEA1 200944Z 15006KT 23/12 A2997 RMK A01 T02310124  RH  051%=      5-min Rain = 0
KEA1 200945Z 15006KT 23/12 A2997 RMK A01 T02310124  RH  051%=      5-min Rain = 0
KEA1 200946Z 15007KT 23/12 A2997 RMK A01 T02300123  RH  051%=      5-min Rain = 0
KEA1 200947Z 16005KT 23/12 A2997 RMK A01 T02310124  RH  051%=      5-min Rain = 0
KEA1 200948Z 15005KT 23/12 A2997 RMK A01 T02300124  RH  051%=      5-min Rain = 0
KEA1 200949Z 15005KT 23/12 A2997 RMK A01 T02300124  RH  051%=      5-min Rain = 0
KEA1 200950Z 14004KT 23/12 A2998 RMK A01 T02290124  RH  052%=      5-min Rain = 0
KEA1 200951Z 14004KT 23/12 A2998 RMK A01 T02280123  RH  052%=      5-min Rain = 0
KEA1 200952Z 14004KT 23/12 A2998 RMK A01 T02270124  RH  052%=      5-min Rain = 0
KEA1 200953Z 13003KT 23/12 A2998 RMK A01 T02260124  RH  052%=      5-min Rain = 0
KEA1 200954Z 13003KT 23/12 A2997 RMK A01 T02250123  RH  053%=      5-min Rain = 0
KEA1 200955Z 12004KT 22/12 A2997 RMK A01 T02230123  RH  053%=      5-min Rain = 0
KEA1 200956Z 12004KT 22/12 A2997 RMK A01 T02210123  RH  053%=      5-min Rain = 0
KEA1 200957Z 13004KT 22/12 A2998 RMK A01 T02200123  RH  054%=      5-min Rain = 0
KEA1 200958Z 13005KT 22/12 A2997 RMK A01 T02180123  RH  055%=      5-min Rain = 0
KEA1 200959Z 13004KT 22/12 A2997 RMK A01 T02170123  RH  055%=      5-min Rain = 0
KEA1 201000Z 13004KT 22/12 A2997 RMK A01 T02170123  RH  055%=      5-min Rain = 0
KEA1 201001Z 13004KT 22/12 A2997 RMK A01 T02160123  RH  055%=      5-min Rain = 0
KEA1 201002Z 13005KT 22/12 A2997 RMK A01 T02150123  RH  056%=      5-min Rain = 0
KEA1 201003Z 13005KT 22/12 A2997 RMK A01 T02150123  RH  056%=      5-min Rain = 0
KEA1 201004Z 13005KT 21/12 A2997 RMK A01 T02140123  RH  056%=      5-min Rain = 0
KEA1 201005Z 13005KT 21/12 A2998 RMK A01 T02140123  RH  056%=      5-min Rain = 0
KEA1 201006Z 13006KT 21/12 A2998 RMK A01 T02130123  RH  056%=      5-min Rain = 0
KEA1 201007Z 13006KT 21/12 A2998 RMK A01 T02130123  RH  057%=      5-min Rain = 0
KEA1 201008Z 13006KT 21/12 A2998 RMK A01 T02120123  RH  057%=      5-min Rain = 0
KEA1 201009Z 13007KT 21/12 A2998 RMK A01 T02110123  RH  057%=      5-min Rain = 0
KEA1 201010Z 13006KT 21/12 A2998 RMK A01 T02090123  RH  058%=      5-min Rain = 0
KEA1 201011Z 13007KT 21/12 A2998 RMK A01 T02090123  RH  058%=      5-min Rain = 0
KEA1 201012Z 13007KT 21/12 A2998 RMK A01 T02080123  RH  058%=      5-min Rain = 0
KEA1 201013Z 13007KT 21/12 A2998 RMK A01 T02080123  RH  058%=      5-min Rain = 0
KEA1 201014Z 13006KT 21/12 A2998 RMK A01 T02090123  RH  058%=      5-min Rain = 0
KEA1 201015Z 13006KT 21/12 A2998 RMK A01 T02090123  RH  058%=      5-min Rain = 0
KEA1 201016Z 13006KT 21/12 A2998 RMK A01 T02100123  RH  058%=      5-min Rain = 0
KEA1 201017Z 13006KT 21/12 A2998 RMK A01 T02110124  RH  057%=      5-min Rain = 0
KEA1 201018Z 14005KT 21/12 A2998 RMK A01 T02110124  RH  057%=      5-min Rain = 0
KEA1 201019Z 14005KT 21/12 A2998 RMK A01 T02110123  RH  057%=      5-min Rain = 0
KEA1 201020Z 14005KT 21/12 A2998 RMK A01 T02100123  RH  057%=      5-min Rain = 0
KEA1 201021Z 14005KT 21/12 A2998 RMK A01 T02110124  RH  057%=      5-min Rain = 0
KEA1 201022Z 13005KT 21/12 A2998 RMK A01 T02110124  RH  058%=      5-min Rain = 0
KEA1 201023Z 14005KT 21/12 A2998 RMK A01 T02100124  RH  058%=      5-min Rain = 0
KEA1 201024Z 13005KT 21/12 A2998 RMK A01 T02100124  RH  058%=      5-min Rain = 0
KEA1 201025Z 13005KT 21/12 A2998 RMK A01 T02090123  RH  058%=      5-min Rain = 0
KEA1 201026Z 13006KT 21/12 A2998 RMK A01 T02080123  RH  058%=      5-min Rain = 0
KEA1 201027Z 14005KT 21/12 A2998 RMK A01 T02080124  RH  058%=      5-min Rain = 0
KEA1 201028Z 14006KT 21/12 A2998 RMK A01 T02080124  RH  058%=      5-min Rain = 0
KEA1 201029Z 14005KT 21/12 A2998 RMK A01 T02080124  RH  059%=      5-min Rain = 0
KEA1 201030Z 14006KT 21/12 A2998 RMK A01 T02070124  RH  059%=      5-min Rain = 0
KEA1 201031Z 14006KT 21/12 A2998 RMK A01 T02070124  RH  059%=      5-min Rain = 0
KEA1 201032Z 14005KT 21/12 A2998 RMK A01 T02070124  RH  059%=      5-min Rain = 0
KEA1 201033Z 14005KT 21/12 A2998 RMK A01 T02070124  RH  059%=      5-min Rain = 0
KEA1 201034Z 14005KT 21/12 A2998 RMK A01 T02070124  RH  059%=      5-min Rain = 0
KEA1 201035Z 14005KT 21/12 A2998 RMK A01 T02060124  RH  059%=      5-min Rain = 0
KEA1 201036Z 14005KT 21/12 A2998 RMK A01 T02060124  RH  059%=      5-min Rain = 0
KEA1 201037Z 14005KT 21/12 A2998 RMK A01 T02060124  RH  059%=      5-min Rain = 0
KEA1 201038Z 14005KT 21/12 A2998 RMK A01 T02060124  RH  059%=      5-min Rain = 0
KEA1 201039Z 14004KT 21/12 A2998 RMK A01 T02060124  RH  059%=      5-min Rain = 0
KEA1 201040Z 14004KT 21/12 A2998 RMK A01 T02060124  RH  059%=      5-min Rain = 0
KEA1 201041Z 14004KT 21/12 A2998 RMK A01 T02060124  RH  059%=      5-min Rain = 0
KEA1 201042Z 14004KT 21/12 A2998 RMK A01 T02060124  RH  059%=      5-min Rain = 0
KEA1 201043Z 14004KT 21/12 A2998 RMK A01 T02060124  RH  059%=      5-min Rain = 0
KEA1 201044Z 14004KT 21/12 A2997 RMK A01 T02060124  RH  059%=      5-min Rain = 0
KEA1 201045Z 13004KT 21/12 A2997 RMK A01 T02050124  RH  060%=      5-min Rain = 0
KEA1 201046Z 13004KT 21/12 A2997 RMK A01 T02050124  RH  060%=      5-min Rain = 0
KEA1 201047Z 13004KT 21/12 A2997 RMK A01 T02050124  RH  060%=      5-min Rain = 0
KEA1 201048Z 13004KT 20/12 A2997 RMK A01 T02040124  RH  060%=      5-min Rain = 0
KEA1 201049Z 12004KT 20/12 A2997 RMK A01 T02040124  RH  060%=      5-min Rain = 0
KEA1 201050Z 12004KT 20/12 A2997 RMK A01 T02030124  RH  060%=      5-min Rain = 0
KEA1 201051Z 12004KT 20/12 A2997 RMK A01 T02020123  RH  061%=      5-min Rain = 0
KEA1 201052Z 12004KT 20/12 A2997 RMK A01 T02000123  RH  061%=      5-min Rain = 0
KEA1 201053Z 12004KT 20/12 A2997 RMK A01 T01990123  RH  061%=      5-min Rain = 0
KEA1 201054Z 12005KT 20/12 A2997 RMK A01 T01980123  RH  062%=      5-min Rain = 0
KEA1 201055Z 12004KT 20/12 A2997 RMK A01 T01970123  RH  062%=      5-min Rain = 0
KEA1 201056Z 12005KT 20/12 A2997 RMK A01 T01970123  RH  062%=      5-min Rain = 0
KEA1 201057Z 12005KT 20/12 A2997 RMK A01 T01970124  RH  063%=      5-min Rain = 0
KEA1 201058Z 13005KT 20/12 A2997 RMK A01 T01960124  RH  063%=      5-min Rain = 0
KEA1 201059Z 12006KT 20/12 A2997 RMK A01 T01960124  RH  063%=      5-min Rain = 0
KEA1 201100Z 12006KT 20/12 A2997 RMK A01 T01950124  RH  063%=      5-min Rain = 0
KEA1 201101Z 12006KT 20/12 A2997 RMK A01 T01950124  RH  063%=      5-min Rain = 0
KEA1 201102Z 13007KT 20/12 A2997 RMK A01 T01950124  RH  064%=      5-min Rain = 0
KEA1 201103Z 13006KT 20/12 A2997 RMK A01 T01950124  RH  064%=      5-min Rain = 0
KEA1 201104Z 13007KT 20/13 A2997 RMK A01 T01950125  RH  064%=      5-min Rain = 0
KEA1 201105Z 13006KT 20/13 A2997 RMK A01 T01960125  RH  063%=      5-min Rain = 0
KEA1 201106Z 13006KT 20/13 A2997 RMK A01 T01970125  RH  063%=      5-min Rain = 0
KEA1 201107Z 13006KT 20/13 A2997 RMK A01 T01970125  RH  063%=      5-min Rain = 0
KEA1 201108Z 13006KT 20/13 A2997 RMK A01 T01980126  RH  063%=      5-min Rain = 0
KEA1 201109Z 13006KT 20/13 A2997 RMK A01 T01990126  RH  063%=      5-min Rain = 0
KEA1 201110Z 13005KT 20/13 A2997 RMK A01 T01990126  RH  063%=      5-min Rain = 0
KEA1 201111Z 13006KT 20/13 A2997 RMK A01 T01990126  RH  063%=      5-min Rain = 0
KEA1 201112Z 13006KT 20/13 A2997 RMK A01 T01990126  RH  063%=      5-min Rain = 0
KEA1 201113Z 14005KT 20/13 A2997 RMK A01 T02000126  RH  063%=      5-min Rain = 0
KEA1 201114Z 14004KT 20/13 A2997 RMK A01 T02000126  RH  062%=      5-min Rain = 0
KEA1 201115Z 13004KT 20/13 A2997 RMK A01 T02000126  RH  062%=      5-min Rain = 0
KEA1 201116Z 14004KT 20/13 A2997 RMK A01 T02000126  RH  063%=      5-min Rain = 0
KEA1 201117Z 14002KT 20/13 A2997 RMK A01 T02000127  RH  063%=      5-min Rain = 0
KEA1 201118Z 14001KT 20/13 A2997 RMK A01 T01990126  RH  063%=      5-min Rain = 0
KEA1 201119Z 15001KT 20/13 A2997 RMK A01 T01990126  RH  063%=      5-min Rain = 0
KEA1 201120Z 04000KT 20/13 A2997 RMK A01 T01980126  RH  063%=      5-min Rain = 0
KEA1 201121Z 35002KT 20/13 A2997 RMK A01 T01970125  RH  063%=      5-min Rain = 0
KEA1 201122Z 35003KT 20/12 A2997 RMK A01 T01950124  RH  064%=      5-min Rain = 0
KEA1 201123Z 36003KT 19/12 A2997 RMK A01 T01930124  RH  064%=      5-min Rain = 0
KEA1 201124Z 35003KT 19/12 A2998 RMK A01 T01920124  RH  065%=      5-min Rain = 0
KEA1 201125Z 36003KT 19/12 A2998 RMK A01 T01900124  RH  066%=      5-min Rain = 0
KEA1 201126Z 36003KT 19/13 A2998 RMK A01 T01900125  RH  066%=      5-min Rain = 0
KEA1 201127Z 36002KT 19/13 A2998 RMK A01 T01890125  RH  066%=      5-min Rain = 0
KEA1 201128Z 02003KT 19/13 A2998 RMK A01 T01890125  RH  066%=      5-min Rain = 0
KEA1 201129Z 03002KT 19/13 A2998 RMK A01 T01890125  RH  066%=      5-min Rain = 0
KEA1 201130Z 02002KT 19/13 A2998 RMK A01 T01880125  RH  067%=      5-min Rain = 0
KEA1 201131Z 35001KT 19/13 A2998 RMK A01 T01880125  RH  067%=      5-min Rain = 0
KEA1 201132Z 35001KT 19/13 A2998 RMK A01 T01880125  RH  067%=      5-min Rain = 0
KEA1 201133Z 01001KT 19/13 A2998 RMK A01 T01880125  RH  067%=      5-min Rain = 0
KEA1 201134Z 06001KT 19/13 A2998 RMK A01 T01890126  RH  067%=      5-min Rain = 0
KEA1 201135Z 06001KT 19/13 A2998 RMK A01 T01910126  RH  066%=      5-min Rain = 0
KEA1 201136Z 07001KT 19/13 A2998 RMK A01 T01920126  RH  065%=      5-min Rain = 0
KEA1 201137Z 09001KT 19/13 A2998 RMK A01 T01930126  RH  065%=      5-min Rain = 0
KEA1 201138Z 12002KT 19/13 A2998 RMK A01 T01930126  RH  065%=      5-min Rain = 0
KEA1 201139Z 12001KT 19/13 A2998 RMK A01 T01940126  RH  065%=      5-min Rain = 0
KEA1 201140Z 12001KT 20/13 A2998 RMK A01 T01950126  RH  064%=      5-min Rain = 0
KEA1 201141Z 12001KT 20/13 A2998 RMK A01 T01960126  RH  064%=      5-min Rain = 0
KEA1 201142Z 12001KT 20/13 A2998 RMK A01 T01960126  RH  064%=      5-min Rain = 0
KEA1 201143Z 14003KT 20/13 A2998 RMK A01 T01960126  RH  064%=      5-min Rain = 0
KEA1 201144Z 15001KT 20/13 A2998 RMK A01 T01970127  RH  064%=      5-min Rain = 0
KEA1 201145Z 14002KT 20/13 A2998 RMK A01 T01980127  RH  063%=      5-min Rain = 0
KEA1 201146Z 14001KT 20/13 A2999 RMK A01 T01990127  RH  063%=      5-min Rain = 0
KEA1 201147Z 15001KT 20/13 A2999 RMK A01 T02000127  RH  063%=      5-min Rain = 0
KEA1 201148Z 15001KT 20/13 A2999 RMK A01 T02000127  RH  063%=      5-min Rain = 0
KEA1 201149Z 15001KT 20/13 A2999 RMK A01 T02010127  RH  062%=      5-min Rain = 0
KEA1 201150Z 15001KT 20/13 A2999 RMK A01 T02010127  RH  062%=      5-min Rain = 0
KEA1 201151Z 15001KT 20/13 A2999 RMK A01 T02010127  RH  062%=      5-min Rain = 0
KEA1 201152Z 13001KT 20/13 A2999 RMK A01 T02020127  RH  062%=      5-min Rain = 0
KEA1 201153Z 13001KT 20/13 A2999 RMK A01 T02010126  RH  062%=      5-min Rain = 0
KEA1 201154Z 13001KT 20/13 A2999 RMK A01 T02010126  RH  062%=      5-min Rain = 0
KEA1 201155Z 12002KT 20/13 A2998 RMK A01 T02000126  RH  062%=      5-min Rain = 0
KEA1 201156Z 12002KT 20/13 A2998 RMK A01 T02000126  RH  062%=      5-min Rain = 0
KEA1 201157Z 12001KT 20/13 A2998 RMK A01 T01990126  RH  063%=      5-min Rain = 0
KEA1 201158Z 11001KT 20/13 A2998 RMK A01 T01980126  RH  063%=      5-min Rain = 0
KEA1 201159Z 12001KT 20/13 A2998 RMK A01 T01970126  RH  063%=      5-min Rain = 0
KEA1 201200Z 10001KT 20/13 A2998 RMK A01 T01960126  RH  064%=      5-min Rain = 0
KEA1 201201Z 11001KT 20/13 A2999 RMK A01 T01950126  RH  064%=      5-min Rain = 0
KEA1 201202Z 09001KT 19/13 A2999 RMK A01 T01940125  RH  064%=      5-min Rain = 0
KEA1 201203Z 09001KT 19/13 A2999 RMK A01 T01940125  RH  064%=      5-min Rain = 0
KEA1 201204Z 08001KT 19/13 A2999 RMK A01 T01930125  RH  065%=      5-min Rain = 0
KEA1 201205Z 08001KT 19/13 A2999 RMK A01 T01930126  RH  065%=      5-min Rain = 0
KEA1 201206Z 07001KT 19/13 A2999 RMK A01 T01920125  RH  065%=      5-min Rain = 0
KEA1 201207Z 05002KT 19/13 A2999 RMK A01 T01910125  RH  065%=      5-min Rain = 0
KEA1 201208Z 04002KT 19/12 A2999 RMK A01 T01900124  RH  066%=      5-min Rain = 0
KEA1 201209Z 02003KT 19/12 A2999 RMK A01 T01890124  RH  066%=      5-min Rain = 0
KEA1 201210Z 01003KT 19/12 A2999 RMK A01 T01870124  RH  066%=      5-min Rain = 0
KEA1 201211Z 00003KT 19/12 A2999 RMK A01 T01870124  RH  067%=      5-min Rain = 0
KEA1 201212Z 00002KT 19/13 A2999 RMK A01 T01870125  RH  067%=      5-min Rain = 0
KEA1 201213Z 01003KT 19/13 A2999 RMK A01 T01880126  RH  067%=      5-min Rain = 0
KEA1 201214Z 02002KT 19/13 A2999 RMK A01 T01900126  RH  067%=      5-min Rain = 0
KEA1 201215Z 03003KT 19/13 A2999 RMK A01 T01910127  RH  066%=      5-min Rain = 0
KEA1 201216Z 05003KT 19/13 A2999 RMK A01 T01920127  RH  066%=      5-min Rain = 0
KEA1 201217Z 05002KT 19/13 A2999 RMK A01 T01920128  RH  066%=      5-min Rain = 0
KEA1 201218Z 05003KT 19/13 A2999 RMK A01 T01930128  RH  066%=      5-min Rain = 0
KEA1 201219Z 06003KT 20/13 A2999 RMK A01 T01950129  RH  066%=      5-min Rain = 0
KEA1 201220Z 09002KT 20/13 A2999 RMK A01 T01950129  RH  066%=      5-min Rain = 0
KEA1 201221Z 06002KT 20/13 A2999 RMK A01 T01970130  RH  065%=      5-min Rain = 0
KEA1 201222Z 08002KT 20/13 A2999 RMK A01 T01980130  RH  065%=      5-min Rain = 0
KEA1 201223Z 08002KT 20/13 A2999 RMK A01 T02000131  RH  064%=      5-min Rain = 0
KEA1 201224Z 10002KT 20/13 A2999 RMK A01 T02000130  RH  064%=      5-min Rain = 0
KEA1 201225Z 11003KT 20/13 A2999 RMK A01 T02010131  RH  064%=      5-min Rain = 0
KEA1 201226Z 10002KT 20/13 A2999 RMK A01 T02020132  RH  064%=      5-min Rain = 0
KEA1 201227Z 11003KT 20/13 A2999 RMK A01 T02030131  RH  063%=      5-min Rain = 0
KEA1 201228Z 12003KT 20/13 A2999 RMK A01 T02040132  RH  063%=      5-min Rain = 0
KEA1 201229Z 12003KT 21/13 A2999 RMK A01 T02060132  RH  063%=      5-min Rain = 0
KEA1 201230Z 12004KT 21/13 A2999 RMK A01 T02070133  RH  062%=      5-min Rain = 0
KEA1 201231Z 12004KT 21/13 A2999 RMK A01 T02080133  RH  062%=      5-min Rain = 0
KEA1 201232Z 13005KT 21/13 A2999 RMK A01 T02090133  RH  062%=      5-min Rain = 0
KEA1 201233Z 12004KT 21/13 A2999 RMK A01 T02090133  RH  062%=      5-min Rain = 0
KEA1 201234Z 12004KT 21/13 A2999 RMK A01 T02100134  RH  062%=      5-min Rain = 0
KEA1 201235Z 11004KT 21/13 A2999 RMK A01 T02110134  RH  062%=      5-min Rain = 0
KEA1 201236Z 11004KT 21/14 A2999 RMK A01 T02110135  RH  062%=      5-min Rain = 0
KEA1 201237Z 12004KT 21/14 A2999 RMK A01 T02120135  RH  061%=      5-min Rain = 0
KEA1 201238Z 12003KT 21/14 A30 RMK A01 T02130136  RH  062%=      5-min Rain = 0
KEA1 201239Z 12003KT 21/14 A30 RMK A01 T02130136  RH  061%=      5-min Rain = 0
KEA1 201240Z 12003KT 21/14 A30 RMK A01 T02140135  RH  061%=      5-min Rain = 0
KEA1 201241Z 12004KT 22/14 A2999 RMK A01 T02150136  RH  061%=      5-min Rain = 0
KEA1 201242Z 12004KT 22/14 A2999 RMK A01 T02160137  RH  060%=      5-min Rain = 0
KEA1 201243Z 11004KT 22/14 A2999 RMK A01 T02170137  RH  061%=      5-min Rain = 0
KEA1 201244Z 12005KT 22/14 A2999 RMK A01 T02170138  RH  060%=      5-min Rain = 0
KEA1 201245Z 12005KT 22/14 A2999 RMK A01 T02180137  RH  060%=      5-min Rain = 0
KEA1 201246Z 12004KT 22/14 A2999 RMK A01 T02180136  RH  060%=      5-min Rain = 0
KEA1 201247Z 13004KT 22/14 A2999 RMK A01 T02180136  RH  060%=      5-min Rain = 0
KEA1 201248Z 14004KT 22/14 A2999 RMK A01 T02190136  RH  059%=      5-min Rain = 0
KEA1 201249Z 15004KT 22/14 A2999 RMK A01 T02190136  RH  059%=      5-min Rain = 0
KEA1 201250Z 15004KT 22/14 A2999 RMK A01 T02190137  RH  060%=      5-min Rain = 0
KEA1 201251Z 15004KT 22/14 A2999 RMK A01 T02190137  RH  060%=      5-min Rain = 0
KEA1 201252Z 15005KT 22/14 A2999 RMK A01 T02190138  RH  060%=      5-min Rain = 0
KEA1 201253Z 15006KT 22/14 A2999 RMK A01 T02190137  RH  060%=      5-min Rain = 0
KEA1 201254Z 15005KT 22/14 A2999 RMK A01 T02190137  RH  060%=      5-min Rain = 0
KEA1 201255Z 15005KT 22/14 A2999 RMK A01 T02200138  RH  060%=      5-min Rain = 0
KEA1 201256Z 15006KT 22/14 A2999 RMK A01 T02200139  RH  060%=      5-min Rain = 0
KEA1 201257Z 16006KT 22/14 A2999 RMK A01 T02210138  RH  059%=      5-min Rain = 0
KEA1 201258Z 16006KT 22/14 A2999 RMK A01 T02210138  RH  059%=      5-min Rain = 0
KEA1 201259Z 16006KT 22/14 A2999 RMK A01 T02220138  RH  059%=      5-min Rain = 0
KEA1 201300Z 17005KT 22/14 A2999 RMK A01 T02220138  RH  059%=      5-min Rain = 0
KEA1 201301Z 17006KT 22/14 A2999 RMK A01 T02230139  RH  059%=      5-min Rain = 0
KEA1 201302Z 17005KT 22/14 A2999 RMK A01 T02240138  RH  058%=      5-min Rain = 0
KEA1 201303Z 17006KT 23/14 A2999 RMK A01 T02250138  RH  058%=      5-min Rain = 0
KEA1 201304Z 17005KT 23/14 A2999 RMK A01 T02250138  RH  058%=      5-min Rain = 0
KEA1 201305Z 18005KT 23/14 A30 RMK A01 T02260139  RH  058%=      5-min Rain = 0
KEA1 201306Z 17006KT 23/14 A30 RMK A01 T02270139  RH  057%=      5-min Rain = 0
KEA1 201307Z 17007KT 23/14 A30 RMK A01 T02270139  RH  057%=      5-min Rain = 0
KEA1 201308Z 17007KT 23/14 A2999 RMK A01 T02270138  RH  057%=      5-min Rain = 0
KEA1 201309Z 17007KT 23/14 A2999 RMK A01 T02280139  RH  057%=      5-min Rain = 0
KEA1 201310Z 17007KT 23/14 A2999 RMK A01 T02280139  RH  057%=      5-min Rain = 0
KEA1 201311Z 17007KT 23/14 A2999 RMK A01 T02290140  RH  057%=      5-min Rain = 0
KEA1 201312Z 17007KT 23/14 A2999 RMK A01 T02300140  RH  057%=      5-min Rain = 0
KEA1 201313Z 17007KT 23/14 A2999 RMK A01 T02310140  RH  057%=      5-min Rain = 0
KEA1 201314Z 16008KT 23/14 A2999 RMK A01 T02320140  RH  056%=      5-min Rain = 0
KEA1 201315Z 16009KT 23/14 A2999 RMK A01 T02330140  RH  056%=      5-min Rain = 0
KEA1 201316Z 17009KT 23/14 A2999 RMK A01 T02330139  RH  056%=      5-min Rain = 0
KEA1 201317Z 16010KT 23/14 A2999 RMK A01 T02340140  RH  056%=      5-min Rain = 0
KEA1 201318Z 16010KT 23/14 A2999 RMK A01 T02340139  RH  055%=      5-min Rain = 0
KEA1 201319Z 17009KT 23/14 A2999 RMK A01 T02340139  RH  055%=      5-min Rain = 0
KEA1 201320Z 16009KT 23/14 A2999 RMK A01 T02340141  RH  056%=      5-min Rain = 0
KEA1 201321Z 17007KT 24/14 A2999 RMK A01 T02360141  RH  055%=      5-min Rain = 0
KEA1 201322Z 17008KT 24/14 A2999 RMK A01 T02360141  RH  055%=      5-min Rain = 0
KEA1 201323Z 17009KT 24/14 A2999 RMK A01 T02380141  RH  055%=      5-min Rain = 0
KEA1 201324Z 18008KT 24/14 A2999 RMK A01 T02370140  RH  054%=      5-min Rain = 0
KEA1 201325Z 18008KT 24/14 A2999 RMK A01 T02380141  RH  055%=      5-min Rain = 0
KEA1 201326Z 17008KT 24/14 A2999 RMK A01 T02390140  RH  054%=      5-min Rain = 0
KEA1 201327Z 18007KT 24/14 A2999 RMK A01 T02390141  RH  054%=      5-min Rain = 0
KEA1 201328Z 18009KT 24/14 A2999 RMK A01 T02390141  RH  054%=      5-min Rain = 0
KEA1 201329Z 18008KT 24/14 A2999 RMK A01 T02400141  RH  054%=      5-min Rain = 0
KEA1 201330Z 18010KT 24/14 A2999 RMK A01 T02400141  RH  054%=      5-min Rain = 0
KEA1 201331Z 18009KT 24/14 A2999 RMK A01 T02410141  RH  053%=      5-min Rain = 0
KEA1 201332Z 18008KT 24/14 A2999 RMK A01 T02410141  RH  054%=      5-min Rain = 0
KEA1 201333Z 17009KT 24/14 A2999 RMK A01 T02420140  RH  053%=      5-min Rain = 0
KEA1 201334Z 17008KT 24/14 A2999 RMK A01 T02420142  RH  054%=      5-min Rain = 0
KEA1 201335Z 18009KT 24/14 A2999 RMK A01 T02420142  RH  053%=      5-min Rain = 0
KEA1 201336Z 19008KT 24/14 A2999 RMK A01 T02430141  RH  053%=      5-min Rain = 0
KEA1 201337Z 18009KT 24/14 A2999 RMK A01 T02440143  RH  053%=      5-min Rain = 0
KEA1 201338Z 18009KT 25/14 A2999 RMK A01 T02450142  RH  053%=      5-min Rain = 0
KEA1 201339Z 18007KT 24/14 A2999 RMK A01 T02440142  RH  053%=      5-min Rain = 0
KEA1 201340Z 19005KT 24/14 A30 RMK A01 T02440143  RH  053%=      5-min Rain = 0
KEA1 201341Z 17007KT 25/14 A2999 RMK A01 T02460144  RH  053%=      5-min Rain = 0
KEA1 201342Z 17007KT 25/14 A2999 RMK A01 T02470143  RH  052%=      5-min Rain = 0
KEA1 201343Z 17008KT 25/14 A2999 RMK A01 T02470144  RH  053%=      5-min Rain = 0
KEA1 201344Z 18008KT 25/14 A2999 RMK A01 T02480144  RH  052%=      5-min Rain = 0
KEA1 201345Z 19009KT 25/14 A2999 RMK A01 T02480144  RH  052%=      5-min Rain = 0
KEA1 201346Z 18009KT 25/14 A2999 RMK A01 T02480143  RH  052%=      5-min Rain = 0
KEA1 201347Z 18008KT 25/14 A2999 RMK A01 T02490144  RH  052%=      5-min Rain = 0
KEA1 201348Z 18008KT 25/15 A2999 RMK A01 T02490145  RH  052%=      5-min Rain = 0
KEA1 201349Z 17010KT 25/14 A2999 RMK A01 T02500144  RH  052%=      5-min Rain = 0
KEA1 201350Z 17011KT 25/14 A2999 RMK A01 T02500143  RH  051%=      5-min Rain = 0
KEA1 201351Z 17007KT 25/15 A2999 RMK A01 T02490145  RH  052%=      5-min Rain = 0
KEA1 201352Z 18010KT 25/15 A2999 RMK A01 T02500145  RH  052%=      5-min Rain = 0
KEA1 201353Z 16009KT 25/14 A2999 RMK A01 T02510144  RH  052%=      5-min Rain = 0
KEA1 201354Z 15009KT 25/15 A2999 RMK A01 T02510145  RH  052%=      5-min Rain = 0
KEA1 201355Z 16008KT 25/15 A2999 RMK A01 T02520146  RH  052%=      5-min Rain = 0
KEA1 201356Z 17011KT 25/15 A2999 RMK A01 T02530145  RH  051%=      5-min Rain = 0
KEA1 201357Z 18010KT 25/14 A2999 RMK A01 T02520144  RH  051%=      5-min Rain = 0
KEA1 201358Z 18009KT 25/15 A2999 RMK A01 T02510145  RH  052%=      5-min Rain = 0
KEA1 201359Z 17009KT 25/15 A2999 RMK A01 T02520145  RH  052%=      5-min Rain = 0
KEA1 201400Z 18011KT 25/15 A2999 RMK A01 T02540146  RH  051%=      5-min Rain = 0
KEA1 201401Z 18009KT 25/15 A2999 RMK A01 T02540146  RH  051%=      5-min Rain = 0
KEA1 201402Z 19008KT 26/15 A30 RMK A01 T02560147  RH  051%=      5-min Rain = 0
KEA1 201403Z 19009KT 26/15 A30 RMK A01 T02570146  RH  051%=      5-min Rain = 0
KEA1 201404Z 19009KT 26/15 A2999 RMK A01 T02570145  RH  050%=      5-min Rain = 0
KEA1 201405Z 17011KT 26/15 A2999 RMK A01 T02580146  RH  050%=      5-min Rain = 0
KEA1 201406Z 17011KT 26/15 A2999 RMK A01 T02580145  RH  050%=      5-min Rain = 0
KEA1 201407Z 18012KT 26/15 A2999 RMK A01 T02590145  RH  049%=      5-min Rain = 0
KEA1 201408Z 17011KT 26/15 A2999 RMK A01 T02590145  RH  049%=      5-min Rain = 0
KEA1 201409Z 17012KT 26/15 A2999 RMK A01 T02590145  RH  049%=      5-min Rain = 0
KEA1 201410Z 17011KT 26/15 A2999 RMK A01 T02600145  RH  049%=      5-min Rain = 0
KEA1 201411Z 17011KT 26/15 A2999 RMK A01 T02590145  RH  049%=      5-min Rain = 0
KEA1 201412Z 17011KT 26/15 A2999 RMK A01 T02600146  RH  049%=      5-min Rain = 0
KEA1 201413Z 17012KT 26/15 A2999 RMK A01 T02610145  RH  049%=      5-min Rain = 0
KEA1 201414Z 17010KT 26/15 A2999 RMK A01 T02610147  RH  049%=      5-min Rain = 0
KEA1 201415Z 17012KT 26/15 A2999 RMK A01 T02620147  RH  049%=      5-min Rain = 0
KEA1 201416Z 18012KT 26/15 A2999 RMK A01 T02630147  RH  049%=      5-min Rain = 0
KEA1 201417Z 18011KT 26/15 A2999 RMK A01 T02630146  RH  048%=      5-min Rain = 0
KEA1 201418Z 18010KT 26/15 A2999 RMK A01 T02640148  RH  049%=      5-min Rain = 0
KEA1 201419Z 18009KT 27/15 A2999 RMK A01 T02660148  RH  048%=      5-min Rain = 0
KEA1 201420Z 18010KT 27/15 A2999 RMK A01 T02670148  RH  048%=      5-min Rain = 0
KEA1 201421Z 17009KT 27/15 A2999 RMK A01 T02680147  RH  048%=      5-min Rain = 0
KEA1 201422Z 18007KT 27/15 A2999 RMK A01 T02670149  RH  048%=      5-min Rain = 0
KEA1 201423Z 20008KT 27/15 A2999 RMK A01 T02680149  RH  048%=      5-min Rain = 0
KEA1 201424Z 21008KT 27/15 A2999 RMK A01 T02690148  RH  047%=      5-min Rain = 0
KEA1 201425Z 19006KT 27/15 A30 RMK A01 T02700151  RH  048%=      5-min Rain = 0
KEA1 201426Z 17009KT 27/15 A30 RMK A01 T02720151  RH  047%=      5-min Rain = 0
KEA1 201427Z 17009KT 27/15 A2999 RMK A01 T02730149  RH  047%=      5-min Rain = 0
KEA1 201428Z 19012KT 27/15 A2999 RMK A01 T02740148  RH  046%=      5-min Rain = 0
KEA1 201429Z 18011KT 27/15 A2999 RMK A01 T02720147  RH  046%=      5-min Rain = 0
KEA1 201430Z 18010KT 27/15 A2999 RMK A01 T02720148  RH  047%=      5-min Rain = 0
KEA1 201431Z 19011KT 27/15 A2999 RMK A01 T02740148  RH  046%=      5-min Rain = 0
KEA1 201432Z 19009KT 27/15 A2999 RMK A01 T02740149  RH  046%=      5-min Rain = 0
KEA1 201433Z 18011KT 27/15 A2999 RMK A01 T02740147  RH  046%=      5-min Rain = 0
KEA1 201434Z 18014KT 27/15 A2999 RMK A01 T02740148  RH  046%=      5-min Rain = 0
KEA1 201435Z 18013KT 27/15 A2999 RMK A01 T02740146  RH  045%=      5-min Rain = 0
KEA1 201436Z 19013KT 27/15 A2999 RMK A01 T02730147  RH  046%=      5-min Rain = 0
KEA1 201437Z 19014KT 28/15 A2999 RMK A01 T02750148  RH  046%=      5-min Rain = 0
KEA1 201438Z 19012KT 28/15 A2999 RMK A01 T02760148  RH  046%=      5-min Rain = 0
KEA1 201439Z 19013KT 28/15 A2999 RMK A01 T02770149  RH  046%=      5-min Rain = 0
KEA1 201440Z 19012KT 28/15 A2999 RMK A01 T02770149  RH  045%=      5-min Rain = 0
KEA1 201441Z 19013KT 28/15 A2999 RMK A01 T02770148  RH  045%=      5-min Rain = 0
KEA1 201442Z 20012G17KT 28/15 A2999 RMK A01 T02770149  RH  045%=      5-min Rain = 0
KEA1 201443Z 20016KT 28/15 A2999 RMK A01 T02770147  RH  045%=      5-min Rain = 0
KEA1 201444Z 18011KT 28/15 A2999 RMK A01 T02760147  RH  045%=      5-min Rain = 0
KEA1 201445Z 18013KT 28/15 A2999 RMK A01 T02760148  RH  046%=      5-min Rain = 0
KEA1 201446Z 19013KT 28/15 A2999 RMK A01 T02770148  RH  045%=      5-min Rain = 0
KEA1 201447Z 19012KT 28/15 A2999 RMK A01 T02770148  RH  045%=      5-min Rain = 0
KEA1 201448Z 18011KT 28/15 A2999 RMK A01 T02760148  RH  046%=      5-min Rain = 0
KEA1 201449Z 19012KT 28/15 A2999 RMK A01 T02770148  RH  045%=      5-min Rain = 0
KEA1 201450Z 18013KT 28/15 A2999 RMK A01 T02770148  RH  045%=      5-min Rain = 0
KEA1 201451Z 18011KT 28/15 A2999 RMK A01 T02770148  RH  045%=      5-min Rain = 0
KEA1 201452Z 19011KT 28/15 A2999 RMK A01 T02780149  RH  045%=      5-min Rain = 0
KEA1 201453Z 20013KT 28/15 A2999 RMK A01 T02800149  RH  045%=      5-min Rain = 0
KEA1 201454Z 18013KT 28/15 A2999 RMK A01 T02800150  RH  045%=      5-min Rain = 0
KEA1 201455Z 18013KT 28/15 A2999 RMK A01 T02810148  RH  044%=      5-min Rain = 0
KEA1 201456Z 19012G18KT 28/15 A2998 RMK A01 T02800150  RH  045%=      5-min Rain = 0
KEA1 201457Z 19014KT 28/15 A2998 RMK A01 T02810147  RH  044%=      5-min Rain = 0
KEA1 201458Z 18012KT 28/15 A2998 RMK A01 T02810148  RH  044%=      5-min Rain = 0
KEA1 201459Z 19015KT 28/15 A2998 RMK A01 T02810149  RH  044%=      5-min Rain = 0
KEA1 201500Z 19013KT 28/15 A2998 RMK A01 T02820149  RH  044%=      5-min Rain = 0
KEA1 201501Z 19011KT 28/15 A2999 RMK A01 T02840150  RH  044%=      5-min Rain = 0
KEA1 201502Z 19009KT 29/15 A2999 RMK A01 T02850152  RH  044%=      5-min Rain = 0
KEA1 201503Z 19011KT 29/15 A2999 RMK A01 T02880153  RH  044%=      5-min Rain = 0
KEA1 201504Z 19012KT 29/15 A2999 RMK A01 T02910152  RH  043%=      5-min Rain = 0
KEA1 201505Z 18013KT 29/15 A2999 RMK A01 T02890149  RH  042%=      5-min Rain = 0
KEA1 201506Z 18011KT 28/15 A2999 RMK A01 T02840149  RH  044%=      5-min Rain = 0
KEA1 201507Z 18012KT 28/15 A2999 RMK A01 T02840149  RH  044%=      5-min Rain = 0
KEA1 201508Z 20011KT 29/15 A2999 RMK A01 T02860150  RH  044%=      5-min Rain = 0
KEA1 201509Z 18012KT 29/15 A2999 RMK A01 T02880151  RH  043%=      5-min Rain = 0
KEA1 201510Z 18012KT 29/15 A2999 RMK A01 T02900151  RH  043%=      5-min Rain = 0
KEA1 201511Z 20011KT 29/15 A2999 RMK A01 T02900150  RH  043%=      5-min Rain = 0
KEA1 201512Z 19012KT 29/15 A2999 RMK A01 T02880150  RH  043%=      5-min Rain = 0
KEA1 201513Z 18010KT 29/15 A2999 RMK A01 T02880151  RH  043%=      5-min Rain = 0
KEA1 201514Z 18014KT 29/15 A2999 RMK A01 T02890149  RH  043%=      5-min Rain = 0
KEA1 201515Z 18013KT 29/15 A2999 RMK A01 T02890149  RH  043%=      5-min Rain = 0
KEA1 201516Z 18011KT 29/15 A2999 RMK A01 T02860148  RH  043%=      5-min Rain = 0
KEA1 201517Z 18010KT 29/15 A2999 RMK A01 T02870151  RH  043%=      5-min Rain = 0
KEA1 201518Z 18008KT 29/15 A2999 RMK A01 T02910153  RH  043%=      5-min Rain = 0
KEA1 201519Z 18009KT 29/15 A2999 RMK A01 T02930153  RH  042%=      5-min Rain = 0
KEA1 201520Z 19011KT 29/15 A2999 RMK A01 T02920152  RH  043%=      5-min Rain = 0
KEA1 201521Z 20013KT 29/15 A2998 RMK A01 T02920149  RH  042%=      5-min Rain = 0
KEA1 201522Z 20012KT 29/15 A2998 RMK A01 T02930148  RH  041%=      5-min Rain = 0
KEA1 201523Z 20011KT 29/15 A2999 RMK A01 T02930149  RH  042%=      5-min Rain = 0
KEA1 201524Z 21013KT 29/15 A2998 RMK A01 T02930148  RH  041%=      5-min Rain = 0
KEA1 201525Z 20011KT 29/15 A2998 RMK A01 T02920148  RH  041%=      5-min Rain = 0
KEA1 201526Z 20012KT 29/15 A2998 RMK A01 T02940150  RH  041%=      5-min Rain = 0
KEA1 201527Z 20012KT 30/15 A2998 RMK A01 T02960147  RH  040%=      5-min Rain = 0
KEA1 201528Z 20010KT 30/15 A2998 RMK A01 T02950149  RH  041%=      5-min Rain = 0
KEA1 201529Z 19011KT 30/15 A2998 RMK A01 T02960149  RH  041%=      5-min Rain = 0
KEA1 201530Z 19012KT 30/15 A2998 RMK A01 T02970150  RH  041%=      5-min Rain = 0
KEA1 201531Z 18011KT 30/15 A2998 RMK A01 T02970152  RH  041%=      5-min Rain = 0
KEA1 201532Z 17011KT 30/15 A2998 RMK A01 T02990153  RH  041%=      5-min Rain = 0
KEA1 201533Z 18010KT 30/15 A2998 RMK A01 T02970152  RH  041%=      5-min Rain = 0
KEA1 201534Z 18010G15KT 30/15 A2998 RMK A01 T02960153  RH  042%=      5-min Rain = 0
KEA1 201535Z 19011KT 30/15 A2998 RMK A01 T02980152  RH  041%=      5-min Rain = 0
KEA1 201536Z 18013KT 30/15 A2998 RMK A01 T03020152  RH  040%=      5-min Rain = 0
KEA1 201537Z 19013KT 30/15 A2998 RMK A01 T03020150  RH  040%=      5-min Rain = 0
KEA1 201538Z 18015KT 30/15 A2998 RMK A01 T02990150  RH  041%=      5-min Rain = 0
KEA1 201539Z 18015KT 30/15 A2998 RMK A01 T02980150  RH  040%=      5-min Rain = 0
KEA1 201540Z 18013KT 30/15 A2998 RMK A01 T02980148  RH  040%=      5-min Rain = 0
KEA1 201541Z 18012KT 30/15 A2998 RMK A01 T02970150  RH  041%=      5-min Rain = 0
KEA1 201542Z 19015KT 30/15 A2998 RMK A01 T03010151  RH  040%=      5-min Rain = 0
KEA1 201543Z 19011KT 30/15 A2998 RMK A01 T03010149  RH  040%=      5-min Rain = 0
KEA1 201544Z 18011KT 30/15 A2998 RMK A01 T02990151  RH  041%=      5-min Rain = 0
KEA1 201545Z 18012KT 30/15 A2998 RMK A01 T03000153  RH  041%=      5-min Rain = 0
KEA1 201546Z 19013KT 30/15 A2998 RMK A01 T03030153  RH  040%=      5-min Rain = 0
KEA1 201547Z 20011KT 30/15 A2998 RMK A01 T03030152  RH  040%=      5-min Rain = 0
KEA1 201548Z 19013KT 30/15 A2998 RMK A01 T03020152  RH  040%=      5-min Rain = 0
KEA1 201549Z 19010KT 30/15 A2998 RMK A01 T03020152  RH  040%=      5-min Rain = 0
KEA1 201550Z 18013KT 30/15 A2998 RMK A01 T03030153  RH  040%=      5-min Rain = 0
KEA1 201551Z 19012KT 30/15 A2998 RMK A01 T03040152  RH  040%=      5-min Rain = 0
KEA1 201552Z 19014KT 31/15 A2998 RMK A01 T03060152  RH  039%=      5-min Rain = 0
KEA1 201553Z 19013KT 31/15 A2998 RMK A01 T03050150  RH  039%=      5-min Rain = 0
KEA1 201554Z 20010KT 30/15 A2998 RMK A01 T03040150  RH  039%=      5-min Rain = 0
KEA1 201555Z 20014KT 30/15 A2998 RMK A01 T03030151  RH  040%=      5-min Rain = 0
KEA1 201556Z 20013KT 30/15 A2998 RMK A01 T03030151  RH  040%=      5-min Rain = 0
KEA1 201557Z 19013KT 30/15 A2998 RMK A01 T03030151  RH  040%=      5-min Rain = 0
KEA1 201558Z 19016KT 30/15 A2998 RMK A01 T03030150  RH  039%=      5-min Rain = 0
KEA1 201559Z 18014KT 30/15 A2998 RMK A01 T03030151  RH  040%=      5-min Rain = 0
KEA1 201600Z 17013KT 30/15 A2998 RMK A01 T03040151  RH  039%=      5-min Rain = 0
KEA1 201601Z 20013KT 31/15 A2998 RMK A01 T03070153  RH  039%=      5-min Rain = 0
KEA1 201602Z 19012KT 31/15 A2998 RMK A01 T03070152  RH  039%=      5-min Rain = 0
KEA1 201603Z 19010KT 31/15 A2998 RMK A01 T03070153  RH  039%=      5-min Rain = 0
KEA1 201604Z 19014KT 31/15 A2998 RMK A01 T03090153  RH  039%=      5-min Rain = 0
KEA1 201605Z 20012KT 31/15 A2998 RMK A01 T03090152  RH  039%=      5-min Rain = 0
KEA1 201606Z 19011KT 31/15 A2998 RMK A01 T03080154  RH  039%=      5-min Rain = 0
KEA1 201607Z 19016KT 31/15 A2998 RMK A01 T03100151  RH  038%=      5-min Rain = 0
KEA1 201608Z 19014KT 31/15 A2998 RMK A01 T03100151  RH  038%=      5-min Rain = 0
KEA1 201609Z 18013KT 31/15 A2998 RMK A01 T03100151  RH  038%=      5-min Rain = 0
KEA1 201610Z 20012KT 31/15 A2998 RMK A01 T03090151  RH  038%=      5-min Rain = 0
KEA1 201611Z 20012KT 31/15 A2998 RMK A01 T03070150  RH  039%=      5-min Rain = 0
KEA1 201612Z 19007KT 30/15 A2998 RMK A01 T03040151  RH  039%=      5-min Rain = 0
KEA1 201613Z 18013KT 31/15 A2998 RMK A01 T03070152  RH  039%=      5-min Rain = 0
KEA1 201614Z 17013KT 31/15 A2998 RMK A01 T03100150  RH  038%=      5-min Rain = 0
KEA1 201615Z 17012KT 31/15 A2998 RMK A01 T03100151  RH  038%=      5-min Rain = 0
KEA1 201616Z 18011KT 31/15 A2998 RMK A01 T03100151  RH  038%=      5-min Rain = 0
KEA1 201617Z 18011KT 31/15 A2998 RMK A01 T03130153  RH  038%=      5-min Rain = 0
KEA1 201618Z 19012KT 32/15 A2998 RMK A01 T03160152  RH  037%=      5-min Rain = 0
KEA1 201619Z 18008KT 32/15 A2998 RMK A01 T03180154  RH  037%=      5-min Rain = 0
KEA1 201620Z 17014KT 32/16 A2998 RMK A01 T03200155  RH  037%=      5-min Rain = 0
KEA1 201621Z 17012KT 32/15 A2998 RMK A01 T03190154  RH  037%=      5-min Rain = 0
KEA1 201622Z 17010KT 32/15 A2998 RMK A01 T03150153  RH  037%=      5-min Rain = 0
KEA1 201623Z 18016KT 32/15 A2997 RMK A01 T03160151  RH  037%=      5-min Rain = 0
KEA1 201624Z 20013KT 32/15 A2998 RMK A01 T03160151  RH  037%=      5-min Rain = 0
KEA1 201625Z 20011KT 32/15 A2998 RMK A01 T03160151  RH  037%=      5-min Rain = 0
KEA1 201626Z 20010KT 32/15 A2998 RMK A01 T03200153  RH  037%=      5-min Rain = 0
KEA1 201627Z 20012KT 32/15 A2998 RMK A01 T03230153  RH  036%=      5-min Rain = 0
KEA1 201628Z 20011KT 32/15 A2998 RMK A01 T03230152  RH  036%=      5-min Rain = 0
KEA1 201629Z 18010KT 32/15 A2998 RMK A01 T03220154  RH  036%=      5-min Rain = 0
KEA1 201630Z 19011KT 32/15 A2998 RMK A01 T03210151  RH  036%=      5-min Rain = 0
KEA1 201631Z 19011KT 32/15 A2998 RMK A01 T03190151  RH  036%=      5-min Rain = 0
KEA1 201632Z 21011KT 32/15 A2998 RMK A01 T03200151  RH  036%=      5-min Rain = 0
KEA1 201633Z 21010KT 32/15 A2998 RMK A01 T03230150  RH  035%=      5-min Rain = 0
KEA1 201634Z 19010KT 32/15 A2998 RMK A01 T03230152  RH  036%=      5-min Rain = 0
KEA1 201635Z 21010KT 32/15 A2998 RMK A01 T03240153  RH  036%=      5-min Rain = 0
KEA1 201636Z 20011KT 33/15 A2998 RMK A01 T03250151  RH  035%=      5-min Rain = 0
KEA1 201637Z 19012KT 32/15 A2998 RMK A01 T03220150  RH  036%=      5-min Rain = 0
KEA1 201638Z 19013KT 32/15 A2998 RMK A01 T03200152  RH  036%=      5-min Rain = 0
KEA1 201639Z 19013KT 33/15 A2998 RMK A01 T03260154  RH  036%=      5-min Rain = 0
KEA1 201640Z 19012KT 33/15 A2998 RMK A01 T03280152  RH  035%=      5-min Rain = 0
KEA1 201641Z 20012KT 33/15 A2998 RMK A01 T03260150  RH  035%=      5-min Rain = 0
KEA1 201642Z 20012KT 32/15 A2998 RMK A01 T03210150  RH  036%=      5-min Rain = 0
KEA1 201643Z 19011KT 32/15 A2998 RMK A01 T03190151  RH  036%=      5-min Rain = 0
KEA1 201644Z 19011KT 32/15 A2998 RMK A01 T03200151  RH  036%=      5-min Rain = 0
KEA1 201645Z 18012KT 33/15 A2998 RMK A01 T03250153  RH  036%=      5-min Rain = 0
KEA1 201646Z 18011KT 33/15 A2998 RMK A01 T03280154  RH  035%=      5-min Rain = 0
KEA1 201647Z 19011KT 33/15 A2998 RMK A01 T03260153  RH  035%=      5-min Rain = 0
KEA1 201648Z 19010KT 33/16 A2998 RMK A01 T03250156  RH  036%=      5-min Rain = 0
KEA1 201649Z 21010KT 33/16 A2998 RMK A01 T03290156  RH  035%=      5-min Rain = 0
KEA1 201650Z 22009KT 33/16 A2998 RMK A01 T03310159  RH  036%=      5-min Rain = 0
KEA1 201651Z 20010KT 33/16 A2998 RMK A01 T03320157  RH  035%=      5-min Rain = 0
KEA1 201652Z 19011KT 33/15 A2998 RMK A01 T03310154  RH  035%=      5-min Rain = 0
KEA1 201653Z 18009KT 33/15 A2998 RMK A01 T03260153  RH  035%=      5-min Rain = 0
KEA1 201654Z 19013KT 33/16 A2998 RMK A01 T03260155  RH  036%=      5-min Rain = 0
KEA1 201655Z 18012KT 33/15 A2998 RMK A01 T03300154  RH  035%=      5-min Rain = 0
KEA1 201656Z 20011KT 33/16 A2998 RMK A01 T03300155  RH  035%=      5-min Rain = 0
KEA1 201657Z 21012KT 33/15 A2998 RMK A01 T03310153  RH  034%=      5-min Rain = 0
KEA1 201658Z 20011KT 33/15 A2998 RMK A01 T03290152  RH  034%=      5-min Rain = 0
KEA1 201659Z 21007KT 33/15 A2998 RMK A01 T03280152  RH  035%=      5-min Rain = 0
KEA1 201700Z 21007KT 33/15 A2998 RMK A01 T03280152  RH  035%=      5-min Rain = 0
KEA1 201701Z 19010KT 33/15 A2998 RMK A01 T03280154  RH  035%=      5-min Rain = 0
KEA1 201702Z 19014KT 33/15 A2998 RMK A01 T03320154  RH  034%=      5-min Rain = 0
KEA1 201703Z 18013KT 33/15 A2998 RMK A01 T03330152  RH  034%=      5-min Rain = 0
KEA1 201704Z 18012KT 33/15 A2998 RMK A01 T03330151  RH  034%=      5-min Rain = 0
KEA1 201705Z 19011G16KT 33/15 A2998 RMK A01 T03310150  RH  034%=      5-min Rain = 0
KEA1 201706Z 19012KT 33/15 A2998 RMK A01 T03310150  RH  034%=      5-min Rain = 0
KEA1 201707Z 22010KT 33/15 A2998 RMK A01 T03340152  RH  034%=      5-min Rain = 0
KEA1 201708Z 23008KT 34/15 A2998 RMK A01 T03350152  RH  033%=      5-min Rain = 0
KEA1 201709Z 20011KT 33/15 A2998 RMK A01 T03320151  RH  034%=      5-min Rain = 0
KEA1 201710Z 20012KT 33/15 A2998 RMK A01 T03340153  RH  034%=      5-min Rain = 0
KEA1 201711Z 20011KT 34/15 A2998 RMK A01 T03360153  RH  033%=      5-min Rain = 0
KEA1 201712Z 19010KT 33/15 A2998 RMK A01 T03330152  RH  034%=      5-min Rain = 0
KEA1 201713Z 19011KT 33/15 A2998 RMK A01 T03330153  RH  034%=      5-min Rain = 0
KEA1 201714Z 19013KT 34/15 A2998 RMK A01 T03350150  RH  033%=      5-min Rain = 0
KEA1 201715Z 18011KT 34/15 A2998 RMK A01 T03390153  RH  033%=      5-min Rain = 0
KEA1 201716Z 19012G17KT 34/15 A2998 RMK A01 T03440153  RH  032%=      5-min Rain = 0
KEA1 201717Z 19009KT 34/15 A2998 RMK A01 T03420152  RH  032%=      5-min Rain = 0
KEA1 201718Z 21009KT 34/15 A2998 RMK A01 T03400152  RH  032%=      5-min Rain = 0
KEA1 201719Z 19011KT 34/15 A2998 RMK A01 T03410153  RH  033%=      5-min Rain = 0
KEA1 201720Z 20009G14KT 34/15 A2998 RMK A01 T03420150  RH  032%=      5-min Rain = 0
KEA1 201721Z 21012KT 34/15 A2998 RMK A01 T03410152  RH  032%=      5-min Rain = 0
KEA1 201722Z 20012G18KT 34/15 A2997 RMK A01 T03410152  RH  032%=      5-min Rain = 0
KEA1 201723Z 19014KT 34/15 A2997 RMK A01 T03430150  RH  031%=      5-min Rain = 0
KEA1 201724Z 20010KT 34/15 A2998 RMK A01 T03420154  RH  032%=      5-min Rain = 0
KEA1 201725Z 20011KT 35/15 A2998 RMK A01 T03450151  RH  031%=      5-min Rain = 0
KEA1 201726Z 19011KT 34/15 A2998 RMK A01 T03430153  RH  032%=      5-min Rain = 0
KEA1 201727Z 19009KT 34/15 A2998 RMK A01 T03440154  RH  032%=      5-min Rain = 0
KEA1 201728Z 20008KT 34/15 A2997 RMK A01 T03420153  RH  032%=      5-min Rain = 0
KEA1 201729Z 19011G17KT 34/16 A2997 RMK A01 T03430155  RH  033%=      5-min Rain = 0
KEA1 201730Z 19012KT 35/15 A2997 RMK A01 T03460152  RH  031%=      5-min Rain = 0
KEA1 201731Z 19013KT 35/15 A2997 RMK A01 T03470152  RH  031%=      5-min Rain = 0
KEA1 201732Z 19013KT 35/15 A2997 RMK A01 T03480151  RH  031%=      5-min Rain = 0
KEA1 201733Z 19010KT 35/15 A2997 RMK A01 T03480153  RH  031%=      5-min Rain = 0
KEA1 201734Z 19012KT 35/15 A2997 RMK A01 T03520153  RH  030%=      5-min Rain = 0
KEA1 201735Z 19011KT 35/15 A2997 RMK A01 T03530153  RH  030%=      5-min Rain = 0
KEA1 201736Z 19011KT 35/15 A2997 RMK A01 T03540152  RH  030%=      5-min Rain = 0
KEA1 201737Z 22011KT 35/15 A2997 RMK A01 T03530152  RH  030%=      5-min Rain = 0
KEA1 201738Z 21011KT 35/15 A2997 RMK A01 T03510151  RH  030%=      5-min Rain = 0
KEA1 201739Z 22010KT 35/15 A2997 RMK A01 T03500148  RH  030%=      5-min Rain = 0
KEA1 201740Z 23008KT 35/15 A2997 RMK A01 T03480149  RH  030%=      5-min Rain = 0
KEA1 201741Z 21011KT 35/15 A2997 RMK A01 T03510151  RH  030%=      5-min Rain = 0
KEA1 201742Z 19011KT 36/15 A2997 RMK A01 T03570151  RH  029%=      5-min Rain = 0
KEA1 201743Z 17013KT 36/15 A2996 RMK A01 T03600150  RH  029%=      5-min Rain = 0
KEA1 201744Z 18012KT 36/15 A2997 RMK A01 T03580148  RH  029%=      5-min Rain = 0
KEA1 201745Z 18012KT 35/15 A2996 RMK A01 T03530148  RH  029%=      5-min Rain = 0
KEA1 201746Z 20009KT 35/15 A2997 RMK A01 T03540147  RH  029%=      5-min Rain = 0
KEA1 201747Z 19012KT 36/15 A2996 RMK A01 T03550145  RH  029%=      5-min Rain = 0
KEA1 201748Z 18011KT 35/14 A2997 RMK A01 T03540144  RH  028%=      5-min Rain = 0
KEA1 201749Z 20013KT 35/14 A2996 RMK A01 T03530144  RH  029%=      5-min Rain = 0
KEA1 201750Z 20010KT 35/15 A2997 RMK A01 T03540145  RH  029%=      5-min Rain = 0
KEA1 201751Z 21012KT 35/14 A2996 RMK A01 T03500142  RH  029%=      5-min Rain = 0
KEA1 201752Z 21010KT 35/14 A2996 RMK A01 T03470139  RH  029%=      5-min Rain = 0
KEA1 201753Z 21011KT 35/14 A2996 RMK A01 T03500139  RH  028%=      5-min Rain = 0
KEA1 201754Z 21010KT 35/14 A2996 RMK A01 T03510140  RH  028%=      5-min Rain = 0
KEA1 201755Z 20007KT 35/14 A2996 RMK A01 T03510138  RH  028%=      5-min Rain = 0
KEA1 201756Z 22010KT 35/14 A2996 RMK A01 T03510143  RH  029%=      5-min Rain = 0
KEA1 201757Z 16009KT 35/14 A2996 RMK A01 T03540144  RH  029%=      5-min Rain = 0
KEA1 201758Z 17010KT 36/15 A2996 RMK A01 T03580147  RH  028%=      5-min Rain = 0
KEA1 201759Z 17012KT 36/15 A2996 RMK A01 T03640146  RH  027%=      5-min Rain = 0
KEA1 201800Z 17010KT 37/15 A2996 RMK A01 T03650145  RH  027%=      5-min Rain = 0
KEA1 201801Z 16009KT 36/14 A2996 RMK A01 T03640144  RH  027%=      5-min Rain = 0
KEA1 201802Z 16008KT 36/15 A2996 RMK A01 T03620145  RH  027%=      5-min Rain = 0
KEA1 201803Z 20006KT 36/14 A2996 RMK A01 T03620144  RH  027%=      5-min Rain = 0
KEA1 201804Z 19009KT 36/15 A2996 RMK A01 T03630145  RH  027%=      5-min Rain = 0
KEA1 201805Z 18009KT 36/14 A2996 RMK A01 T03640144  RH  027%=      5-min Rain = 0
KEA1 201806Z 19008KT 36/15 A2996 RMK A01 T03640145  RH  027%=      5-min Rain = 0
KEA1 201807Z 19012KT 36/15 A2996 RMK A01 T03640145  RH  027%=      5-min Rain = 0
KEA1 201808Z 17011G18KT 36/14 A2996 RMK A01 T03640143  RH  027%=      5-min Rain = 0
KEA1 201809Z 19015KT 37/14 A2996 RMK A01 T03660141  RH  026%=      5-min Rain = 0
KEA1 201810Z 19012KT 36/14 A2996 RMK A01 T03640138  RH  026%=      5-min Rain = 0
KEA1 201811Z 19009KT 36/14 A2996 RMK A01 T03590136  RH  026%=      5-min Rain = 0
KEA1 201812Z 19006KT 36/14 A2996 RMK A01 T03590136  RH  026%=      5-min Rain = 0
KEA1 201813Z 19010G16KT 36/14 A2996 RMK A01 T03580139  RH  027%=      5-min Rain = 0
KEA1 201814Z 18013KT 36/14 A2996 RMK A01 T03590137  RH  027%=      5-min Rain = 0
KEA1 201815Z 20013KT 36/14 A2996 RMK A01 T03590137  RH  027%=      5-min Rain = 0
KEA1 201816Z 18009KT 36/14 A2996 RMK A01 T03580138  RH  027%=      5-min Rain = 0
KEA1 201817Z 18011KT 36/14 A2996 RMK A01 T03590141  RH  027%=      5-min Rain = 0
KEA1 201818Z 17009KT 36/14 A2996 RMK A01 T03620140  RH  027%=      5-min Rain = 0
KEA1 201819Z 19005KT 36/14 A2996 RMK A01 T03630141  RH  027%=      5-min Rain = 0
KEA1 201820Z 16008KT 36/14 A2996 RMK A01 T03640143  RH  027%=      5-min Rain = 0
KEA1 201821Z 16008KT 37/14 A2996 RMK A01 T03670141  RH  026%=      5-min Rain = 0
KEA1 201822Z 19010G15KT 37/14 A2995 RMK A01 T03650141  RH  026%=      5-min Rain = 0
KEA1 201823Z 20012KT 37/14 A2995 RMK A01 T03670142  RH  026%=      5-min Rain = 0
KEA1 201824Z 19012KT 37/14 A2995 RMK A01 T03680140  RH  026%=      5-min Rain = 0
KEA1 201825Z 18013KT 37/14 A2995 RMK A01 T03670140  RH  026%=      5-min Rain = 0
KEA1 201826Z 17011KT 37/14 A2995 RMK A01 T03690140  RH  026%=      5-min Rain = 0
KEA1 201827Z 16007KT 37/14 A2995 RMK A01 T03680139  RH  025%=      5-min Rain = 0
KEA1 201828Z 15007KT 37/14 A2995 RMK A01 T03650139  RH  026%=      5-min Rain = 0
KEA1 201829Z 17007KT 37/14 A2995 RMK A01 T03650139  RH  026%=      5-min Rain = 0
KEA1 201830Z 17009KT 37/14 A2995 RMK A01 T03700141  RH  026%=      5-min Rain = 0
KEA1 201831Z 16008KT 37/14 A2995 RMK A01 T03730141  RH  025%=      5-min Rain = 0
KEA1 201832Z 17011KT 38/14 A2995 RMK A01 T03760139  RH  024%=      5-min Rain = 0
KEA1 201833Z 15011KT 38/14 A2995 RMK A01 T03770139  RH  024%=      5-min Rain = 0
KEA1 201834Z 15013G20KT 38/14 A2995 RMK A01 T03760140  RH  025%=      5-min Rain = 0
KEA1 201835Z 17015KT 38/14 A2994 RMK A01 T03750141  RH  025%=      5-min Rain = 0
KEA1 201836Z 17015KT 38/14 A2995 RMK A01 T03770141  RH  025%=      5-min Rain = 0
KEA1 201837Z 17012KT 38/14 A2995 RMK A01 T03760137  RH  024%=      5-min Rain = 0
KEA1 201838Z 16008KT 37/14 A2995 RMK A01 T03700137  RH  025%=      5-min Rain = 0
KEA1 201839Z 16011KT 37/14 A2995 RMK A01 T03700137  RH  025%=      5-min Rain = 0
KEA1 201840Z 15015KT 37/14 A2994 RMK A01 T03730137  RH  025%=      5-min Rain = 0
KEA1 201841Z 15013KT 37/14 A2994 RMK A01 T03740136  RH  024%=      5-min Rain = 0
KEA1 201842Z 16011KT 38/14 A2994 RMK A01 T03750137  RH  024%=      5-min Rain = 0
KEA1 201843Z 16011KT 38/14 A2994 RMK A01 T03780140  RH  024%=      5-min Rain = 0
KEA1 201844Z 16012KT 38/14 A2994 RMK A01 T03800137  RH  024%=      5-min Rain = 0
KEA1 201845Z 16010KT 38/14 A2994 RMK A01 T03760137  RH  024%=      5-min Rain = 0
KEA1 201846Z 16013KT 38/14 A2994 RMK A01 T03750138  RH  024%=      5-min Rain = 0
KEA1 201847Z 16010KT 38/14 A2994 RMK A01 T03770135  RH  024%=      5-min Rain = 0
KEA1 201848Z 17008KT 38/14 A2994 RMK A01 T03780136  RH  024%=      5-min Rain = 0
KEA1 201849Z 19014KT 38/14 A2994 RMK A01 T03820137  RH  023%=      5-min Rain = 0
KEA1 201850Z 18017KT 38/13 A2994 RMK A01 T03810133  RH  023%=      5-min Rain = 0
KEA1 201851Z 18013KT 38/13 A2994 RMK A01 T03760128  RH  023%=      5-min Rain = 0
KEA1 201852Z 18010KT 37/13 A2994 RMK A01 T03730128  RH  023%=      5-min Rain = 0
KEA1 201853Z 17015KT 38/13 A2994 RMK A01 T03750130  RH  023%=      5-min Rain = 0
KEA1 201854Z 16013KT 38/13 A2994 RMK A01 T03770131  RH  023%=      5-min Rain = 0
KEA1 201855Z 18011KT 38/13 A2994 RMK A01 T03760130  RH  023%=      5-min Rain = 0
KEA1 201856Z 16014KT 38/13 A2994 RMK A01 T03750130  RH  023%=      5-min Rain = 0
KEA1 201857Z 16013KT 38/13 A2994 RMK A01 T03760127  RH  023%=      5-min Rain = 0
KEA1 201858Z 14010KT 38/13 A2994 RMK A01 T03770127  RH  023%=      5-min Rain = 0
KEA1 201859Z 15012G17KT 38/13 A2994 RMK A01 T03770130  RH  023%=      5-min Rain = 0
KEA1 201900Z 17014KT 38/13 A2994 RMK A01 T03820133  RH  023%=      5-min Rain = 0
KEA1 201901Z 18008KT 38/13 A2994 RMK A01 T03810129  RH  022%=      5-min Rain = 0
KEA1 201902Z 18013KT 38/13 A2993 RMK A01 T03790133  RH  023%=      5-min Rain = 0
KEA1 201903Z 18017KT 38/13 A2993 RMK A01 T03800131  RH  023%=      5-min Rain = 0
KEA1 201904Z 18017KT 38/13 A2993 RMK A01 T03810126  RH  022%=      5-min Rain = 0
KEA1 201905Z 17014KT 38/12 A2994 RMK A01 T03790123  RH  022%=      5-min Rain = 0
KEA1 201906Z 18013KT 38/12 A2994 RMK A01 T03780124  RH  022%=      5-min Rain = 0
KEA1 201907Z 20015KT 38/12 A2993 RMK A01 T03770124  RH  022%=      5-min Rain = 0
KEA1 201908Z 18016KT 38/12 A2993 RMK A01 T03780121  RH  022%=      5-min Rain = 0
KEA1 201909Z 17013KT 38/12 A2994 RMK A01 T03770119  RH  021%=      5-min Rain = 0
KEA1 201910Z 19012KT 38/12 A2993 RMK A01 T03780124  RH  022%=      5-min Rain = 0
KEA1 201911Z 18011KT 38/12 A2994 RMK A01 T03800124  RH  022%=      5-min Rain = 0
KEA1 201912Z 18012KT 38/12 A2994 RMK A01 T03830124  RH  021%=      5-min Rain = 0
KEA1 201913Z 18012KT 39/13 A2993 RMK A01 T03860129  RH  022%=      5-min Rain = 0
KEA1 201914Z 17013KT 38/13 A2993 RMK A01 T03830127  RH  022%=      5-min Rain = 0
KEA1 201915Z 17011KT 38/13 A2993 RMK A01 T03800126  RH  022%=      5-min Rain = 0
KEA1 201916Z 18010KT 38/13 A2993 RMK A01 T03780126  RH  022%=      5-min Rain = 0
KEA1 201917Z 17011G17KT 38/13 A2993 RMK A01 T03760125  RH  022%=      5-min Rain = 0
KEA1 201918Z 17016KT 38/12 A2993 RMK A01 T03780124  RH  022%=      5-min Rain = 0
KEA1 201919Z 16014KT 39/12 A2993 RMK A01 T03850124  RH  021%=      5-min Rain = 0
KEA1 201920Z 16015KT 39/12 A2993 RMK A01 T03850123  RH  021%=      5-min Rain = 0
KEA1 201921Z 16014KT 38/12 A2993 RMK A01 T03840123  RH  021%=      5-min Rain = 0
KEA1 201922Z 17012KT 38/12 A2993 RMK A01 T03840123  RH  021%=      5-min Rain = 0
KEA1 201923Z 18011KT 38/12 A2993 RMK A01 T03820123  RH  021%=      5-min Rain = 0
KEA1 201924Z 16010KT 38/13 A2993 RMK A01 T03790128  RH  022%=      5-min Rain = 0
KEA1 201925Z 19011G16KT 38/13 A2993 RMK A01 T03820128  RH  022%=      5-min Rain = 0
KEA1 201926Z 19014KT 39/12 A2993 RMK A01 T03850124  RH  021%=      5-min Rain = 0
KEA1 201927Z 19016KT 39/12 A2993 RMK A01 T03850122  RH  021%=      5-min Rain = 0
KEA1 201928Z 20013KT 38/12 A2993 RMK A01 T03840120  RH  021%=      5-min Rain = 0
KEA1 201929Z 19015KT 38/12 A2993 RMK A01 T03820123  RH  021%=      5-min Rain = 0
KEA1 201930Z 20015KT 38/13 A2993 RMK A01 T03840125  RH  021%=      5-min Rain = 0
KEA1 201931Z 21013KT 38/12 A2993 RMK A01 T03820122  RH  021%=      5-min Rain = 0
KEA1 201932Z 22007KT 38/12 A2993 RMK A01 T03770122  RH  022%=      5-min Rain = 0
KEA1 201933Z 20011KT 38/12 A2993 RMK A01 T03750124  RH  022%=      5-min Rain = 0
KEA1 201934Z 18012KT 38/13 A2993 RMK A01 T03770131  RH  023%=      5-min Rain = 0
KEA1 201935Z 17011G18KT 38/13 A2993 RMK A01 T03840131  RH  022%=      5-min Rain = 0
KEA1 201936Z 15017KT 39/13 A2992 RMK A01 T03860130  RH  022%=      5-min Rain = 0
KEA1 201937Z 16014KT 39/13 A2993 RMK A01 T03860128  RH  022%=      5-min Rain = 0
KEA1 201938Z 17011KT 38/13 A2993 RMK A01 T03840128  RH  022%=      5-min Rain = 0
KEA1 201939Z 16016G22KT 38/13 A2992 RMK A01 T03840125  RH  021%=      5-min Rain = 0
KEA1 201940Z 16016KT 39/12 A2992 RMK A01 T03860123  RH  021%=      5-min Rain = 0
KEA1 201941Z 16015KT 39/12 A2992 RMK A01 T03850123  RH  021%=      5-min Rain = 0
KEA1 201942Z 17014KT 39/12 A2992 RMK A01 T03860121  RH  021%=      5-min Rain = 0
KEA1 201943Z 16015KT 39/12 A2992 RMK A01 T03860124  RH  021%=      5-min Rain = 0
KEA1 201944Z 16014KT 39/12 A2992 RMK A01 T03920124  RH  020%=      5-min Rain = 0
KEA1 201945Z 17014KT 39/12 A2992 RMK A01 T03920119  RH  020%=      5-min Rain = 0
KEA1 201946Z 16011KT 38/12 A2992 RMK A01 T03840123  RH  021%=      5-min Rain = 0
KEA1 201947Z 16010KT 38/14 A2992 RMK A01 T03830137  RH  023%=      5-min Rain = 0
KEA1 201948Z 17013KT 39/14 A2992 RMK A01 T03870135  RH  023%=      5-min Rain = 0
KEA1 201949Z 18019KT 39/13 A2992 RMK A01 T03870125  RH  021%=      5-min Rain = 0
KEA1 201950Z 18010KT 39/12 A2992 RMK A01 T03850122  RH  021%=      5-min Rain = 0
KEA1 201951Z 18011KT 38/12 A2992 RMK A01 T03820123  RH  021%=      5-min Rain = 0
KEA1 201952Z 18015KT 38/12 A2992 RMK A01 T03840122  RH  021%=      5-min Rain = 0
KEA1 201953Z 17016KT 39/12 A2992 RMK A01 T03860124  RH  021%=      5-min Rain = 0
KEA1 201954Z 18012KT 39/13 A2992 RMK A01 T03850126  RH  021%=      5-min Rain = 0
KEA1 201955Z 19011KT 38/12 A2992 RMK A01 T03810124  RH  022%=      5-min Rain = 0
KEA1 201956Z 17010KT 38/13 A2992 RMK A01 T03820126  RH  022%=      5-min Rain = 0
KEA1 201957Z 15006KT 38/13 A2992 RMK A01 T03810125  RH  022%=      5-min Rain = 0
KEA1 201958Z 15009KT 38/13 A2992 RMK A01 T03800127  RH  022%=      5-min Rain = 0
KEA1 201959Z 15013G18KT 39/13 A2992 RMK A01 T03860130  RH  022%=      5-min Rain = 0
KEA1 202000Z 15015KT 39/13 A2992 RMK A01 T03920128  RH  021%=      5-min Rain = 0
KEA1 202001Z 15012KT 39/13 A2992 RMK A01 T03890129  RH  021%=      5-min Rain = 0
KEA1 202002Z 17015KT 39/13 A2992 RMK A01 T03900130  RH  021%=      5-min Rain = 0
KEA1 202003Z 16012G17KT 40/13 A2992 RMK A01 T03960133  RH  021%=      5-min Rain = 0
KEA1 202004Z 15017KT 40/13 A2992 RMK A01 T03990134  RH  021%=      5-min Rain = 0
KEA1 202005Z 17016KT 40/14 A2992 RMK A01 T03980135  RH  021%=      5-min Rain = 0
KEA1 202006Z 16012KT 40/13 A2992 RMK A01 T03960134  RH  021%=      5-min Rain = 0
KEA1 202007Z 17014KT 40/13 A2992 RMK A01 T03950134  RH  021%=      5-min Rain = 0
KEA1 202008Z 17013KT 39/13 A2992 RMK A01 T03940132  RH  021%=      5-min Rain = 0
KEA1 202009Z 16011KT 39/13 A2992 RMK A01 T03930127  RH  021%=      5-min Rain = 0
KEA1 202010Z 16010KT 39/12 A2992 RMK A01 T03910123  RH  020%=      5-min Rain = 0
KEA1 202011Z 16011KT 39/13 A2992 RMK A01 T03890125  RH  021%=      5-min Rain = 0
KEA1 202012Z 17012KT 39/12 A2992 RMK A01 T03920123  RH  020%=      5-min Rain = 0
KEA1 202013Z 15014G22KT 39/12 A2992 RMK A01 T03910122  RH  020%=      5-min Rain = 0
KEA1 202014Z 16014KT 39/13 A2992 RMK A01 T03900127  RH  021%=      5-min Rain = 0
KEA1 202015Z 14014KT 39/13 A2992 RMK A01 T03910127  RH  021%=      5-min Rain = 0
KEA1 202016Z 14012KT 39/13 A2991 RMK A01 T03890127  RH  021%=      5-min Rain = 0
KEA1 202017Z 13015KT 39/13 A2991 RMK A01 T03880127  RH  021%=      5-min Rain = 0
KEA1 202018Z 17017KT 39/13 A2991 RMK A01 T03900125  RH  021%=      5-min Rain = 0
KEA1 202019Z 17013KT 39/12 A2991 RMK A01 T03920120  RH  020%=      5-min Rain = 0
KEA1 202020Z 17014KT 39/12 A2991 RMK A01 T03930121  RH  020%=      5-min Rain = 0
KEA1 202021Z 19011G17KT 39/12 A2991 RMK A01 T03920115  RH  019%=      5-min Rain = 0
KEA1 202022Z 19016KT 39/11 A2991 RMK A01 T03900112  RH  019%=      5-min Rain = 0
KEA1 202023Z 19012KT 39/11 A2991 RMK A01 T03910109  RH  019%=      5-min Rain = 0
KEA1 202024Z 18011KT 39/11 A2991 RMK A01 T03920110  RH  019%=      5-min Rain = 0
KEA1 202025Z 18009KT 39/11 A2991 RMK A01 T03920109  RH  018%=      5-min Rain = 0
KEA1 202026Z 18011KT 39/13 A2991 RMK A01 T03940126  RH  020%=      5-min Rain = 0
KEA1 202027Z 16013G19KT 40/14 A2991 RMK A01 T03970141  RH  022%=      5-min Rain = 0
KEA1 202028Z 13016KT 40/14 A2991 RMK A01 T03970140  RH  022%=      5-min Rain = 0
KEA1 202029Z 14014KT 39/14 A2991 RMK A01 T03920139  RH  022%=      5-min Rain = 0
KEA1 202030Z 15009KT 39/14 A2991 RMK A01 T03850138  RH  023%=      5-min Rain = 0
KEA1 202031Z 13010KT 38/14 A2991 RMK A01 T03830141  RH  024%=      5-min Rain = 0
KEA1 202032Z 15012KT 39/14 A2991 RMK A01 T03880141  RH  023%=      5-min Rain = 0
KEA1 202033Z 16011KT 39/14 A2991 RMK A01 T03870138  RH  023%=      5-min Rain = 0
KEA1 202034Z 15017KT 39/14 A2991 RMK A01 T03850139  RH  023%=      5-min Rain = 0
KEA1 202035Z 16016G22KT 39/13 A2991 RMK A01 T03890134  RH  022%=      5-min Rain = 0
KEA1 202036Z 17011KT 39/14 A2991 RMK A01 T03920136  RH  022%=      5-min Rain = 0
KEA1 202037Z 15019G24KT 39/14 A2991 RMK A01 T03920140  RH  023%=      5-min Rain = 0
KEA1 202038Z 16013KT 39/14 A2991 RMK A01 T03920140  RH  023%=      5-min Rain = 0
KEA1 202039Z 17013KT 39/14 A2991 RMK A01 T03900139  RH  023%=      5-min Rain = 0
KEA1 202040Z 16016KT 39/14 A2991 RMK A01 T03870138  RH  023%=      5-min Rain = 0
KEA1 202041Z 14018KT 39/14 A2991 RMK A01 T03870138  RH  023%=      5-min Rain = 0
KEA1 202042Z 14014KT 39/14 A2991 RMK A01 T03890137  RH  023%=      5-min Rain = 0
KEA1 202043Z 14011KT 39/14 A2991 RMK A01 T03880136  RH  023%=      5-min Rain = 0
KEA1 202044Z 13010KT 39/14 A2991 RMK A01 T03850136  RH  023%=      5-min Rain = 0
KEA1 202045Z 14013KT 39/14 A2991 RMK A01 T03870138  RH  023%=      5-min Rain = 0
KEA1 202046Z 15011KT 39/13 A2991 RMK A01 T03900134  RH  022%=      5-min Rain = 0
KEA1 202047Z 18015KT 39/13 A299 RMK A01 T03930129  RH  021%=      5-min Rain = 0
KEA1 202048Z 17015KT 39/12 A2991 RMK A01 T03930124  RH  020%=      5-min Rain = 0
KEA1 202049Z 17018KT 39/12 A2991 RMK A01 T03930123  RH  020%=      5-min Rain = 0
KEA1 202050Z 17014KT 39/12 A2991 RMK A01 T03890123  RH  020%=      5-min Rain = 0
KEA1 202051Z 19015KT 39/13 A2991 RMK A01 T03900130  RH  021%=      5-min Rain = 0
KEA1 202052Z 19010KT 39/13 A2991 RMK A01 T03890131  RH  022%=      5-min Rain = 0
KEA1 202053Z 17013G19KT 39/13 A2991 RMK A01 T03890133  RH  022%=      5-min Rain = 0
KEA1 202054Z 14017KT 39/13 A2991 RMK A01 T03900134  RH  022%=      5-min Rain = 0
KEA1 202055Z 14016KT 39/13 A2991 RMK A01 T03920134  RH  022%=      5-min Rain = 0
KEA1 202056Z 14018KT 39/13 A2991 RMK A01 T03900133  RH  022%=      5-min Rain = 0
KEA1 202057Z 13013KT 39/13 A2991 RMK A01 T03860133  RH  022%=      5-min Rain = 0
KEA1 202058Z 14016KT 39/14 A2991 RMK A01 T03870135  RH  022%=      5-min Rain = 0
KEA1 202059Z 13010KT 39/13 A2991 RMK A01 T03890134  RH  022%=      5-min Rain = 0
KEA1 202100Z 13012KT 39/14 A2991 RMK A01 T03930136  RH  022%=      5-min Rain = 0
KEA1 202101Z 15017G23KT 40/14 A2991 RMK A01 T03960136  RH  022%=      5-min Rain = 0
KEA1 202102Z 16017G22KT 39/13 A299 RMK A01 T03930134  RH  022%=      5-min Rain = 0
KEA1 202103Z 14020KT 39/13 A299 RMK A01 T03900134  RH  022%=      5-min Rain = 0
KEA1 202104Z 14018KT 39/13 A299 RMK A01 T03880133  RH  022%=      5-min Rain = 0
KEA1 202105Z 15018KT 39/13 A299 RMK A01 T03870133  RH  022%=      5-min Rain = 0
KEA1 202106Z 15016KT 39/14 A299 RMK A01 T03880135  RH  022%=      5-min Rain = 0
KEA1 202107Z 15019KT 39/14 A299 RMK A01 T03920137  RH  022%=      5-min Rain = 0
KEA1 202108Z 17017KT 39/13 A299 RMK A01 T03920134  RH  022%=      5-min Rain = 0
KEA1 202109Z 17010KT 39/14 A299 RMK A01 T03880135  RH  022%=      5-min Rain = 0
KEA1 202110Z 13010KT 39/14 A2991 RMK A01 T03900138  RH  023%=      5-min Rain = 0
KEA1 202111Z 14011G18KT 39/14 A299 RMK A01 T03940139  RH  022%=      5-min Rain = 0
KEA1 202112Z 14016KT 40/14 A299 RMK A01 T03970138  RH  022%=      5-min Rain = 0
KEA1 202113Z 13016KT 40/14 A299 RMK A01 T03970136  RH  022%=      5-min Rain = 0
KEA1 202114Z 15016KT 39/13 A299 RMK A01 T03940134  RH  022%=      5-min Rain = 0
KEA1 202115Z 16016G21KT 40/14 A299 RMK A01 T03950135  RH  022%=      5-min Rain = 0
KEA1 202116Z 16017KT 40/13 A299 RMK A01 T03970134  RH  021%=      5-min Rain = 0
KEA1 202117Z 15017KT 40/13 A299 RMK A01 T03970134  RH  021%=      5-min Rain = 0
KEA1 202118Z 15013KT 40/14 A299 RMK A01 T03970135  RH  021%=      5-min Rain = 0
KEA1 202119Z 15016KT 40/14 A299 RMK A01 T03980135  RH  021%=      5-min Rain = 0
KEA1 202120Z 16014KT 40/14 A299 RMK A01 T03980135  RH  021%=      5-min Rain = 0
KEA1 202121Z 16015KT 40/14 A299 RMK A01 T03990136  RH  021%=      5-min Rain = 0
KEA1 202122Z 17017KT 40/14 A299 RMK A01 T04000135  RH  021%=      5-min Rain = 0
KEA1 202123Z 17017KT 40/13 A299 RMK A01 T03960131  RH  021%=      5-min Rain = 0
KEA1 202124Z 16013KT 39/13 A299 RMK A01 T03910131  RH  021%=      5-min Rain = 0
KEA1 202125Z 16014KT 39/13 A299 RMK A01 T03900132  RH  022%=      5-min Rain = 0
KEA1 202126Z 16014KT 39/14 A299 RMK A01 T03900135  RH  022%=      5-min Rain = 0
KEA1 202127Z 17013KT 40/14 A299 RMK A01 T03960137  RH  022%=      5-min Rain = 0
KEA1 202128Z 15011KT 40/14 A299 RMK A01 T03980135  RH  021%=      5-min Rain = 0
KEA1 202129Z 15008G13KT 39/13 A299 RMK A01 T03940133  RH  021%=      5-min Rain = 0
KEA1 202130Z 14016KT 39/14 A2989 RMK A01 T03920137  RH  022%=      5-min Rain = 0
KEA1 202131Z 14019KT 40/14 A299 RMK A01 T03950137  RH  022%=      5-min Rain = 0
KEA1 202132Z 15020KT 40/14 A2989 RMK A01 T03960136  RH  021%=      5-min Rain = 0
KEA1 202133Z 15018KT 39/13 A299 RMK A01 T03930134  RH  022%=      5-min Rain = 0
KEA1 202134Z 17017KT 39/13 A2989 RMK A01 T03880134  RH  022%=      5-min Rain = 0
KEA1 202135Z 17017KT 39/14 A2989 RMK A01 T03880135  RH  022%=      5-min Rain = 0
KEA1 202136Z 15018KT 39/14 A2989 RMK A01 T03890136  RH  022%=      5-min Rain = 0
KEA1 202137Z 16018G24KT 39/14 A2989 RMK A01 T03910136  RH  022%=      5-min Rain = 0
KEA1 202138Z 16018KT 39/13 A2989 RMK A01 T03940132  RH  021%=      5-min Rain = 0
KEA1 202139Z 15016KT 39/13 A2989 RMK A01 T03910131  RH  021%=      5-min Rain = 0
KEA1 202140Z 16015KT 39/13 A2989 RMK A01 T03890133  RH  022%=      5-min Rain = 0
KEA1 202141Z 15013KT 39/14 A2989 RMK A01 T03900137  RH  022%=      5-min Rain = 0
KEA1 202142Z 15013G18KT 39/14 A2989 RMK A01 T03920135  RH  022%=      5-min Rain = 0
KEA1 202143Z 16014KT 39/14 A2989 RMK A01 T03910137  RH  022%=      5-min Rain = 0
KEA1 202144Z 17015G21KT 39/14 A2989 RMK A01 T03940136  RH  022%=      5-min Rain = 0
KEA1 202145Z 17016KT 40/14 A2989 RMK A01 T03950135  RH  021%=      5-min Rain = 0
KEA1 202146Z 18014G20KT 40/13 A2989 RMK A01 T03950131  RH  021%=      5-min Rain = 0
KEA1 202147Z 16013G20KT 40/13 A2989 RMK A01 T03950132  RH  021%=      5-min Rain = 0
KEA1 202148Z 16017KT 39/13 A2989 RMK A01 T03930132  RH  021%=      5-min Rain = 0
KEA1 202149Z 16017KT 39/13 A2989 RMK A01 T03930128  RH  021%=      5-min Rain = 0
KEA1 202150Z 16013KT 39/13 A2989 RMK A01 T03930129  RH  021%=      5-min Rain = 0
KEA1 202151Z 16014G21KT 39/14 A2989 RMK A01 T03940136  RH  022%=      5-min Rain = 0
KEA1 202152Z 17017KT 39/13 A2988 RMK A01 T03940132  RH  021%=      5-min Rain = 0
KEA1 202153Z 17013G18KT 39/13 A2989 RMK A01 T03920132  RH  021%=      5-min Rain = 0
KEA1 202154Z 17016G23KT 40/13 A2989 RMK A01 T03950134  RH  021%=      5-min Rain = 0
KEA1 202155Z 17012G19KT 40/13 A2989 RMK A01 T03960132  RH  021%=      5-min Rain = 0
KEA1 202156Z 17011KT 39/13 A2989 RMK A01 T03940134  RH  021%=      5-min Rain = 0
KEA1 202157Z 16014KT 40/13 A2989 RMK A01 T03950134  RH  021%=      5-min Rain = 0
KEA1 202158Z 17012KT 39/14 A2989 RMK A01 T03940135  RH  022%=      5-min Rain = 0
KEA1 202159Z 16013KT 40/14 A2989 RMK A01 T03990137  RH  021%=      5-min Rain = 0
KEA1 202200Z 15014KT 40/14 A2989 RMK A01 T03990137  RH  021%=      5-min Rain = 0
KEA1 202201Z 15022G28KT 40/14 A2988 RMK A01 T03970136  RH  021%=      5-min Rain = 0
KEA1 202202Z 14023KT 39/13 A2988 RMK A01 T03920133  RH  021%=      5-min Rain = 0
KEA1 202203Z 16017KT 39/13 A2988 RMK A01 T03900134  RH  022%=      5-min Rain = 0
KEA1 202204Z 17016KT 39/13 A2988 RMK A01 T03900133  RH  022%=      5-min Rain = 0
KEA1 202205Z 16017KT 39/13 A2988 RMK A01 T03890132  RH  022%=      5-min Rain = 0
KEA1 202206Z 17017G24KT 39/13 A2988 RMK A01 T03880132  RH  022%=      5-min Rain = 0
KEA1 202207Z 15016G22KT 39/13 A2988 RMK A01 T03880134  RH  022%=      5-min Rain = 0
KEA1 202208Z 14014KT 39/14 A2988 RMK A01 T03910135  RH  022%=      5-min Rain = 0
KEA1 202209Z 16019G24KT 39/13 A2988 RMK A01 T03920132  RH  022%=      5-min Rain = 0
KEA1 202210Z 17018KT 39/13 A2988 RMK A01 T03910128  RH  021%=      5-min Rain = 0
KEA1 202211Z 17015KT 39/13 A2988 RMK A01 T03910126  RH  021%=      5-min Rain = 0
KEA1 202212Z 17011KT 39/13 A2988 RMK A01 T03930130  RH  021%=      5-min Rain = 0
KEA1 202213Z 16019KT 40/14 A2988 RMK A01 T03980135  RH  021%=      5-min Rain = 0
KEA1 202214Z 16015KT 40/13 A2988 RMK A01 T03950134  RH  021%=      5-min Rain = 0
KEA1 202215Z 17013KT 39/14 A2988 RMK A01 T03900137  RH  022%=      5-min Rain = 0
KEA1 202216Z 16017KT 39/14 A2988 RMK A01 T03910137  RH  022%=      5-min Rain = 0
KEA1 202217Z 16016KT 39/14 A2988 RMK A01 T03900136  RH  022%=      5-min Rain = 0
KEA1 202218Z 16015KT 39/14 A2988 RMK A01 T03870135  RH  022%=      5-min Rain = 0
KEA1 202219Z 16017G23KT 39/14 A2988 RMK A01 T03880135  RH  022%=      5-min Rain = 0
KEA1 202220Z 16016KT 39/14 A2988 RMK A01 T03900135  RH  022%=      5-min Rain = 0
KEA1 202221Z 17017KT 39/14 A2988 RMK A01 T03910136  RH  022%=      5-min Rain = 0
KEA1 202222Z 16015KT 39/14 A2988 RMK A01 T03920137  RH  022%=      5-min Rain = 0
KEA1 202223Z 15016G21KT 39/14 A2988 RMK A01 T03920135  RH  022%=      5-min Rain = 0
KEA1 202224Z 16017KT 39/14 A2988 RMK A01 T03910135  RH  022%=      5-min Rain = 0
KEA1 202225Z 15021KT 39/14 A2988 RMK A01 T03920135  RH  022%=      5-min Rain = 0
KEA1 202226Z 16018G23KT 39/14 A2988 RMK A01 T03910135  RH  022%=      5-min Rain = 0
KEA1 202227Z 17021G27KT 39/13 A2987 RMK A01 T03920134  RH  022%=      5-min Rain = 0
KEA1 202228Z 15018G24KT 39/14 A2988 RMK A01 T03900135  RH  022%=      5-min Rain = 0
KEA1 202229Z 15017KT 39/14 A2988 RMK A01 T03920136  RH  022%=      5-min Rain = 0
KEA1 202230Z 15017KT 39/14 A2988 RMK A01 T03930135  RH  022%=      5-min Rain = 0
KEA1 202231Z 15020KT 39/14 A2988 RMK A01 T03900136  RH  022%=      5-min Rain = 0
KEA1 202232Z 16019G25KT 39/13 A2988 RMK A01 T03890132  RH  022%=      5-min Rain = 0
KEA1 202233Z 16016KT 39/13 A2988 RMK A01 T03880132  RH  022%=      5-min Rain = 0
KEA1 202234Z 17015KT 39/13 A2988 RMK A01 T03870129  RH  022%=      5-min Rain = 0
KEA1 202235Z 16014KT 39/13 A2988 RMK A01 T03870132  RH  022%=      5-min Rain = 0
KEA1 202236Z 18013G20KT 39/13 A2988 RMK A01 T03890133  RH  022%=      5-min Rain = 0
KEA1 202237Z 18016KT 39/13 A2988 RMK A01 T03930133  RH  021%=      5-min Rain = 0
KEA1 202238Z 16016KT 40/13 A2987 RMK A01 T03950131  RH  021%=      5-min Rain = 0
KEA1 202239Z 15017KT 39/13 A2987 RMK A01 T03930133  RH  021%=      5-min Rain = 0
KEA1 202240Z 17016KT 39/13 A2988 RMK A01 T03930133  RH  021%=      5-min Rain = 0
KEA1 202241Z 17017KT 39/13 A2987 RMK A01 T03940131  RH  021%=      5-min Rain = 0
KEA1 202242Z 18016G22KT 39/13 A2987 RMK A01 T03930129  RH  021%=      5-min Rain = 0
KEA1 202243Z 18015KT 39/13 A2987 RMK A01 T03930128  RH  021%=      5-min Rain = 0
KEA1 202244Z 16013G21KT 39/13 A2987 RMK A01 T03910129  RH  021%=      5-min Rain = 0
KEA1 202245Z 15017KT 39/13 A2987 RMK A01 T03890133  RH  022%=      5-min Rain = 0
KEA1 202246Z 16017G22KT 39/14 A2987 RMK A01 T03890136  RH  022%=      5-min Rain = 0
KEA1 202247Z 16019KT 39/13 A2987 RMK A01 T03910129  RH  021%=      5-min Rain = 0
KEA1 202248Z 16019KT 39/13 A2987 RMK A01 T03900130  RH  021%=      5-min Rain = 0
KEA1 202249Z 16017KT 39/13 A2987 RMK A01 T03900132  RH  022%=      5-min Rain = 0
KEA1 202250Z 17021KT 39/13 A2987 RMK A01 T03920133  RH  022%=      5-min Rain = 0
KEA1 202251Z 16020KT 39/13 A2987 RMK A01 T03910131  RH  021%=      5-min Rain = 0
KEA1 202252Z 15019G24KT 39/13 A2987 RMK A01 T03900131  RH  022%=      5-min Rain = 0
KEA1 202253Z 15019KT 39/13 A2987 RMK A01 T03900129  RH  021%=      5-min Rain = 0
KEA1 202254Z 16021KT 39/13 A2987 RMK A01 T03890132  RH  022%=      5-min Rain = 0
KEA1 202255Z 15020G26KT 39/14 A2987 RMK A01 T03880136  RH  023%=      5-min Rain = 0
KEA1 202256Z 16018G23KT 39/13 A2987 RMK A01 T03870134  RH  022%=      5-min Rain = 0
KEA1 202257Z 16016KT 39/14 A2987 RMK A01 T03870136  RH  023%=      5-min Rain = 0
KEA1 202258Z 18022KT 39/14 A2987 RMK A01 T03870136  RH  023%=      5-min Rain = 0
KEA1 202259Z 17021KT 39/14 A2987 RMK A01 T03860135  RH  023%=      5-min Rain = 0
KEA1 202300Z 17017G22KT 39/13 A2987 RMK A01 T03850134  RH  023%=      5-min Rain = 0
KEA1 202301Z 16015KT 39/13 A2987 RMK A01 T03860134  RH  022%=      5-min Rain = 0
KEA1 202302Z 15012KT 39/14 A2987 RMK A01 T03880135  RH  022%=      5-min Rain = 0
KEA1 202303Z 15016G22KT 39/14 A2987 RMK A01 T03910137  RH  022%=      5-min Rain = 0
KEA1 202304Z 15017KT 39/14 A2987 RMK A01 T03910136  RH  022%=      5-min Rain = 0
KEA1 202305Z 15018G23KT 39/13 A2987 RMK A01 T03890134  RH  022%=      5-min Rain = 0
KEA1 202306Z 16018KT 39/13 A2987 RMK A01 T03880134  RH  022%=      5-min Rain = 0
KEA1 202307Z 15019KT 39/13 A2987 RMK A01 T03880131  RH  022%=      5-min Rain = 0
KEA1 202308Z 15016G21KT 39/13 A2987 RMK A01 T03860133  RH  022%=      5-min Rain = 0
KEA1 202309Z 16016G21KT 39/13 A2987 RMK A01 T03860134  RH  023%=      5-min Rain = 0
KEA1 202310Z 15018G23KT 39/13 A2987 RMK A01 T03870134  RH  022%=      5-min Rain = 0
KEA1 202311Z 16017KT 39/14 A2987 RMK A01 T03870138  RH  023%=      5-min Rain = 0
KEA1 202312Z 16018KT 39/14 A2987 RMK A01 T03880135  RH  022%=      5-min Rain = 0
KEA1 202313Z 17015KT 39/14 A2987 RMK A01 T03850135  RH  023%=      5-min Rain = 0
KEA1 202314Z 16017KT 39/14 A2987 RMK A01 T03860137  RH  023%=      5-min Rain = 0
KEA1 202315Z 15015KT 39/14 A2987 RMK A01 T03870137  RH  023%=      5-min Rain = 0
KEA1 202316Z 15018KT 39/14 A2987 RMK A01 T03860136  RH  023%=      5-min Rain = 0
KEA1 202317Z 16016KT 39/14 A2987 RMK A01 T03850137  RH  023%=      5-min Rain = 0
KEA1 202318Z 15016KT 39/14 A2987 RMK A01 T03860139  RH  023%=      5-min Rain = 0
KEA1 202319Z 15018KT 39/14 A2987 RMK A01 T03880137  RH  023%=      5-min Rain = 0
KEA1 202320Z 17019KT 39/14 A2987 RMK A01 T03870136  RH  023%=      5-min Rain = 0
KEA1 202321Z 16015G21KT 39/13 A2987 RMK A01 T03860133  RH  022%=      5-min Rain = 0
KEA1 202322Z 16018G23KT 39/14 A2987 RMK A01 T03870136  RH  023%=      5-min Rain = 0
KEA1 202323Z 16015KT 39/14 A2987 RMK A01 T03880135  RH  022%=      5-min Rain = 0
KEA1 202324Z 15018KT 39/14 A2987 RMK A01 T03880135  RH  022%=      5-min Rain = 0
KEA1 202325Z 15015KT 39/14 A2987 RMK A01 T03870135  RH  022%=      5-min Rain = 0
KEA1 202326Z 15015KT 39/14 A2987 RMK A01 T03850136  RH  023%=      5-min Rain = 0
KEA1 202327Z 16017G22KT 39/14 A2987 RMK A01 T03860137  RH  023%=      5-min Rain = 0
KEA1 202328Z 16019KT 39/13 A2987 RMK A01 T03860134  RH  022%=      5-min Rain = 0
KEA1 202329Z 16015KT 38/13 A2987 RMK A01 T03840134  RH  023%=      5-min Rain = 0
KEA1 202330Z 16017KT 38/13 A2987 RMK A01 T03830134  RH  023%=      5-min Rain = 0
KEA1 202331Z 15018KT 38/14 A2987 RMK A01 T03830135  RH  023%=      5-min Rain = 0
KEA1 202332Z 15016KT 38/14 A2987 RMK A01 T03820136  RH  023%=      5-min Rain = 0
KEA1 202333Z 14015KT 38/14 A2987 RMK A01 T03820136  RH  023%=      5-min Rain = 0
KEA1 202334Z 16016KT 38/14 A2987 RMK A01 T03810136  RH  023%=      5-min Rain = 0
KEA1 202335Z 16017KT 38/14 A2987 RMK A01 T03820139  RH  024%=      5-min Rain = 0
KEA1 202336Z 15018KT 38/14 A2986 RMK A01 T03840141  RH  024%=      5-min Rain = 0
KEA1 202337Z 15018KT 38/14 A2986 RMK A01 T03840140  RH  024%=      5-min Rain = 0
KEA1 202338Z 16013KT 38/14 A2987 RMK A01 T03840141  RH  024%=      5-min Rain = 0
KEA1 202339Z 16011KT 39/14 A2987 RMK A01 T03850140  RH  023%=      5-min Rain = 0
KEA1 202340Z 16017KT 39/14 A2986 RMK A01 T03860141  RH  023%=      5-min Rain = 0
KEA1 202341Z 14018G23KT 39/14 A2986 RMK A01 T03850141  RH  024%=      5-min Rain = 0
KEA1 202342Z 15019G24KT 38/14 A2986 RMK A01 T03840138  RH  023%=      5-min Rain = 0
KEA1 202343Z 16016KT 38/14 A2986 RMK A01 T03820138  RH  023%=      5-min Rain = 0
KEA1 202344Z 17016G22KT 38/14 A2986 RMK A01 T03820136  RH  023%=      5-min Rain = 0
KEA1 202345Z 16017KT 38/14 A2986 RMK A01 T03820136  RH  023%=      5-min Rain = 0
KEA1 202346Z 16016KT 38/13 A2986 RMK A01 T03820131  RH  022%=      5-min Rain = 0
KEA1 202347Z 16016G21KT 38/13 A2986 RMK A01 T03820132  RH  023%=      5-min Rain = 0
KEA1 202348Z 16018KT 38/13 A2986 RMK A01 T03820133  RH  023%=      5-min Rain = 0
KEA1 202349Z 17015KT 38/14 A2986 RMK A01 T03820135  RH  023%=      5-min Rain = 0
KEA1 202350Z 15017KT 38/14 A2986 RMK A01 T03820136  RH  023%=      5-min Rain = 0
KEA1 202351Z 15016KT 38/14 A2986 RMK A01 T03820138  RH  023%=      5-min Rain = 0
KEA1 202352Z 15017KT 38/14 A2986 RMK A01 T03840139  RH  023%=      5-min Rain = 0
KEA1 202353Z 15020G25KT 38/14 A2986 RMK A01 T03830139  RH  023%=      5-min Rain = 0
KEA1 202354Z 15018KT 38/14 A2986 RMK A01 T03820138  RH  023%=      5-min Rain = 0
KEA1 202355Z 15019KT 38/14 A2986 RMK A01 T03810137  RH  023%=      5-min Rain = 0
KEA1 202356Z 15018G23KT 38/14 A2986 RMK A01 T03800137  RH  024%=      5-min Rain = 0
KEA1 202357Z 15019KT 38/14 A2986 RMK A01 T03790138  RH  024%=      5-min Rain = 0
KEA1 202358Z 15021KT 38/14 A2986 RMK A01 T03790135  RH  023%=      5-min Rain = 0
KEA1 202359Z 15019KT 38/14 A2986 RMK A01 T03780136  RH  024%=      5-min Rain = 0
KEA1 210000Z 15015KT 38/14 A2986 RMK A01 T03780136  RH  024%=      5-min Rain = 0
KEA1 210001Z 16017KT 38/14 A2986 RMK A01 T03790137  RH  024%=      5-min Rain = 0
KEA1 210002Z 16015KT 38/14 A2986 RMK A01 T03800136  RH  023%=      5-min Rain = 0
KEA1 210003Z 15018KT 38/14 A2986 RMK A01 T03800137  RH  024%=      5-min Rain = 0
KEA1 210004Z 15019KT 38/13 A2986 RMK A01 T03800134  RH  023%=      5-min Rain = 0
KEA1 210005Z 16017KT 38/14 A2986 RMK A01 T03790135  RH  023%=      5-min Rain = 0
KEA1 210006Z 16016G21KT 38/14 A2986 RMK A01 T03780135  RH  024%=      5-min Rain = 0
KEA1 210007Z 16018KT 38/13 A2986 RMK A01 T03780134  RH  023%=      5-min Rain = 0
KEA1 210008Z 16018KT 38/13 A2986 RMK A01 T03770133  RH  023%=      5-min Rain = 0
KEA1 210009Z 15017KT 38/13 A2986 RMK A01 T03770134  RH  024%=      5-min Rain = 0
KEA1 210010Z 15016KT 38/14 A2986 RMK A01 T03760135  RH  024%=      5-min Rain = 0
KEA1 210011Z 15016KT 38/14 A2986 RMK A01 T03760138  RH  024%=      5-min Rain = 0
KEA1 210012Z 14014KT 38/14 A2986 RMK A01 T03770139  RH  024%=      5-min Rain = 0
KEA1 210013Z 16016G21KT 38/14 A2986 RMK A01 T03770139  RH  024%=      5-min Rain = 0
KEA1 210014Z 14018KT 38/14 A2986 RMK A01 T03780138  RH  024%=      5-min Rain = 0
KEA1 210015Z 14017KT 38/14 A2986 RMK A01 T03770138  RH  024%=      5-min Rain = 0
KEA1 210016Z 15015KT 38/14 A2986 RMK A01 T03770139  RH  024%=      5-min Rain = 0
KEA1 210017Z 16019KT 38/14 A2986 RMK A01 T03770137  RH  024%=      5-min Rain = 0
KEA1 210018Z 16021KT 38/14 A2986 RMK A01 T03770135  RH  024%=      5-min Rain = 0
KEA1 210019Z 16017KT 38/14 A2986 RMK A01 T03750135  RH  024%=      5-min Rain = 0
KEA1 210020Z 15019KT 37/14 A2986 RMK A01 T03740136  RH  024%=      5-min Rain = 0
KEA1 210021Z 16019KT 37/14 A2986 RMK A01 T03740136  RH  024%=      5-min Rain = 0
KEA1 210022Z 15017KT 37/14 A2986 RMK A01 T03740136  RH  024%=      5-min Rain = 0
KEA1 210023Z 15017KT 37/14 A2986 RMK A01 T03740137  RH  024%=      5-min Rain = 0
KEA1 210024Z 15017KT 37/14 A2986 RMK A01 T03740136  RH  024%=      5-min Rain = 0
KEA1 210025Z 15017KT 37/14 A2986 RMK A01 T03740137  RH  024%=      5-min Rain = 0
KEA1 210026Z 15016KT 37/14 A2986 RMK A01 T03740137  RH  024%=      5-min Rain = 0
KEA1 210027Z 15019KT 37/14 A2986 RMK A01 T03730138  RH  025%=      5-min Rain = 0
KEA1 210028Z 15018KT 37/14 A2986 RMK A01 T03730138  RH  025%=      5-min Rain = 0
KEA1 210029Z 15017G22KT 37/14 A2986 RMK A01 T03720138  RH  025%=      5-min Rain = 0
KEA1 210030Z 15021KT 37/14 A2986 RMK A01 T03720136  RH  024%=      5-min Rain = 0
KEA1 210031Z 15019KT 37/14 A2986 RMK A01 T03720136  RH  024%=      5-min Rain = 0
KEA1 210032Z 15017G22KT 37/14 A2986 RMK A01 T03720136  RH  025%=      5-min Rain = 0
KEA1 210033Z 16014KT 37/14 A2986 RMK A01 T03720137  RH  025%=      5-min Rain = 0
KEA1 210034Z 16016KT 37/14 A2986 RMK A01 T03720138  RH  025%=      5-min Rain = 0
KEA1 210035Z 15018KT 37/14 A2986 RMK A01 T03720139  RH  025%=      5-min Rain = 0
KEA1 210036Z 15016KT 37/14 A2986 RMK A01 T03710139  RH  025%=      5-min Rain = 0
KEA1 210037Z 16013KT 37/14 A2987 RMK A01 T03710140  RH  025%=      5-min Rain = 0
KEA1 210038Z 15017KT 37/14 A2986 RMK A01 T03710140  RH  025%=      5-min Rain = 0
KEA1 210039Z 15016KT 37/14 A2987 RMK A01 T03700138  RH  025%=      5-min Rain = 0
KEA1 210040Z 16015KT 37/14 A2986 RMK A01 T03700139  RH  025%=      5-min Rain = 0
KEA1 210041Z 16015G21KT 37/14 A2987 RMK A01 T03690139  RH  025%=      5-min Rain = 0
KEA1 210042Z 15016KT 37/14 A2987 RMK A01 T03690138  RH  025%=      5-min Rain = 0
KEA1 210043Z 15015KT 37/14 A2987 RMK A01 T03690138  RH  025%=      5-min Rain = 0
KEA1 210044Z 16015KT 37/14 A2987 RMK A01 T03690139  RH  025%=      5-min Rain = 0
KEA1 210045Z 16016KT 37/14 A2987 RMK A01 T03690138  RH  025%=      5-min Rain = 0
KEA1 210046Z 15015KT 37/14 A2987 RMK A01 T03690138  RH  025%=      5-min Rain = 0
KEA1 210047Z 15018KT 37/14 A2987 RMK A01 T03690136  RH  025%=      5-min Rain = 0
KEA1 210048Z 15020KT 37/14 A2987 RMK A01 T03680135  RH  025%=      5-min Rain = 0
KEA1 210049Z 15018KT 37/14 A2987 RMK A01 T03670136  RH  025%=      5-min Rain = 0
KEA1 210050Z 15018KT 37/14 A2987 RMK A01 T03670136  RH  025%=      5-min Rain = 0
KEA1 210051Z 15015G21KT 37/14 A2987 RMK A01 T03660137  RH  025%=      5-min Rain = 0
KEA1 210052Z 15017KT 37/14 A2987 RMK A01 T03660138  RH  026%=      5-min Rain = 0
KEA1 210053Z 15017G22KT 37/14 A2987 RMK A01 T03660139  RH  026%=      5-min Rain = 0
KEA1 210054Z 15016G22KT 37/14 A2987 RMK A01 T03650140  RH  026%=      5-min Rain = 0
KEA1 210055Z 15019KT 36/14 A2987 RMK A01 T03640140  RH  026%=      5-min Rain = 0
KEA1 210056Z 15016KT 36/14 A2987 RMK A01 T03640140  RH  026%=      5-min Rain = 0
KEA1 210057Z 15014G19KT 36/14 A2987 RMK A01 T03630141  RH  027%=      5-min Rain = 0
KEA1 210058Z 15016KT 36/14 A2987 RMK A01 T03630142  RH  027%=      5-min Rain = 0
KEA1 210059Z 15015KT 36/14 A2987 RMK A01 T03630141  RH  027%=      5-min Rain = 0
KEA1 210100Z 15017G22KT 36/14 A2987 RMK A01 T03620141  RH  027%=      5-min Rain = 0
KEA1 210101Z 15020KT 36/14 A2987 RMK A01 T03620140  RH  027%=      5-min Rain = 0
KEA1 210102Z 14017G22KT 36/14 A2987 RMK A01 T03620140  RH  027%=      5-min Rain = 0
KEA1 210103Z 14019G24KT 36/14 A2987 RMK A01 T03610140  RH  027%=      5-min Rain = 0
KEA1 210104Z 14019KT 36/14 A2987 RMK A01 T03610140  RH  027%=      5-min Rain = 0
KEA1 210105Z 15020KT 36/14 A2987 RMK A01 T03600140  RH  027%=      5-min Rain = 0
KEA1 210106Z 14018KT 36/14 A2987 RMK A01 T03600141  RH  027%=      5-min Rain = 0
KEA1 210107Z 14017KT 36/14 A2987 RMK A01 T03600142  RH  027%=      5-min Rain = 0
KEA1 210108Z 14015KT 36/14 A2987 RMK A01 T03590142  RH  027%=      5-min Rain = 0
KEA1 210109Z 14015G20KT 36/14 A2987 RMK A01 T03590142  RH  027%=      5-min Rain = 0
KEA1 210110Z 15017KT 36/14 A2987 RMK A01 T03580142  RH  027%=      5-min Rain = 0
KEA1 210111Z 15016KT 36/14 A2987 RMK A01 T03580142  RH  028%=      5-min Rain = 0
KEA1 210112Z 14016KT 36/14 A2987 RMK A01 T03570142  RH  028%=      5-min Rain = 0
KEA1 210113Z 15014KT 36/14 A2987 RMK A01 T03570142  RH  028%=      5-min Rain = 0
KEA1 210114Z 15017KT 36/14 A2987 RMK A01 T03570142  RH  028%=      5-min Rain = 0
KEA1 210115Z 15018KT 36/14 A2987 RMK A01 T03560142  RH  028%=      5-min Rain = 0
KEA1 210116Z 15016KT 36/14 A2987 RMK A01 T03560142  RH  028%=      5-min Rain = 0
KEA1 210117Z 15015KT 36/14 A2987 RMK A01 T03560142  RH  028%=      5-min Rain = 0
KEA1 210118Z 15014KT 36/14 A2987 RMK A01 T03550143  RH  028%=      5-min Rain = 0
KEA1 210119Z 15015G20KT 35/14 A2987 RMK A01 T03540142  RH  028%=      5-min Rain = 0
KEA1 210120Z 15018KT 35/14 A2987 RMK A01 T03540142  RH  028%=      5-min Rain = 0
KEA1 210121Z 14015KT 35/14 A2987 RMK A01 T03530142  RH  028%=      5-min Rain = 0
KEA1 210122Z 15016G22KT 35/14 A2988 RMK A01 T03530142  RH  028%=      5-min Rain = 0
KEA1 210123Z 14019KT 35/14 A2987 RMK A01 T03520141  RH  028%=      5-min Rain = 0
KEA1 210124Z 14018KT 35/14 A2987 RMK A01 T03520142  RH  028%=      5-min Rain = 0
KEA1 210125Z 14016KT 35/14 A2988 RMK A01 T03520142  RH  028%=      5-min Rain = 0
KEA1 210126Z 15016KT 35/14 A2988 RMK A01 T03510142  RH  028%=      5-min Rain = 0
KEA1 210127Z 15017KT 35/14 A2988 RMK A01 T03500142  RH  029%=      5-min Rain = 0
KEA1 210128Z 15014KT 35/14 A2988 RMK A01 T03500142  RH  029%=      5-min Rain = 0
KEA1 210129Z 15014KT 35/14 A2988 RMK A01 T03490142  RH  029%=      5-min Rain = 0
KEA1 210130Z 14015KT 35/14 A2988 RMK A01 T03480143  RH  029%=      5-min Rain = 0
KEA1 210131Z 14013KT 35/14 A2988 RMK A01 T03480143  RH  029%=      5-min Rain = 0
KEA1 210132Z 15014KT 35/14 A2988 RMK A01 T03470143  RH  029%=      5-min Rain = 0
KEA1 210133Z 14014KT 35/14 A2988 RMK A01 T03460143  RH  030%=      5-min Rain = 0
KEA1 210134Z 14016KT 35/14 A2988 RMK A01 T03460143  RH  030%=      5-min Rain = 0
KEA1 210135Z 14015KT 35/14 A2988 RMK A01 T03460144  RH  030%=      5-min Rain = 0
KEA1 210136Z 15014KT 35/14 A2988 RMK A01 T03450144  RH  030%=      5-min Rain = 0
KEA1 210137Z 15014KT 34/14 A2988 RMK A01 T03440143  RH  030%=      5-min Rain = 0
KEA1 210138Z 14014KT 34/14 A2988 RMK A01 T03440144  RH  030%=      5-min Rain = 0
KEA1 210139Z 15016KT 34/14 A2988 RMK A01 T03440144  RH  030%=      5-min Rain = 0
KEA1 210140Z 15015KT 34/14 A2988 RMK A01 T03440144  RH  030%=      5-min Rain = 0
KEA1 210141Z 15013G18KT 34/14 A2988 RMK A01 T03430144  RH  030%=      5-min Rain = 0
KEA1 210142Z 15015KT 34/14 A2988 RMK A01 T03420144  RH  030%=      5-min Rain = 0
KEA1 210143Z 15015KT 34/14 A2988 RMK A01 T03410144  RH  031%=      5-min Rain = 0
KEA1 210144Z 14016KT 34/14 A2988 RMK A01 T03410143  RH  031%=      5-min Rain = 0
KEA1 210145Z 15014G19KT 34/14 A2988 RMK A01 T03410143  RH  031%=      5-min Rain = 0
KEA1 210146Z 14014KT 34/14 A2988 RMK A01 T03400143  RH  031%=      5-min Rain = 0
KEA1 210147Z 15014KT 34/14 A2988 RMK A01 T03390143  RH  031%=      5-min Rain = 0
KEA1 210148Z 14013KT 34/14 A2988 RMK A01 T03380144  RH  031%=      5-min Rain = 0
KEA1 210149Z 14015KT 34/14 A2988 RMK A01 T03380144  RH  031%=      5-min Rain = 0
KEA1 210150Z 15014KT 34/14 A2988 RMK A01 T03370143  RH  031%=      5-min Rain = 0
KEA1 210151Z 15014KT 34/14 A2988 RMK A01 T03370143  RH  031%=      5-min Rain = 0
KEA1 210152Z 15015KT 34/14 A2989 RMK A01 T03360143  RH  031%=      5-min Rain = 0
KEA1 210153Z 15012KT 34/14 A2989 RMK A01 T03360143  RH  031%=      5-min Rain = 0
KEA1 210154Z 15013KT 34/14 A2989 RMK A01 T03350143  RH  032%=      5-min Rain = 0
KEA1 210155Z 15014KT 33/14 A2989 RMK A01 T03340143  RH  032%=      5-min Rain = 0
KEA1 210156Z 15014KT 33/14 A2989 RMK A01 T03330143  RH  032%=      5-min Rain = 0
KEA1 210157Z 15014KT 33/14 A2989 RMK A01 T03330144  RH  032%=      5-min Rain = 0
KEA1 210158Z 15013KT 33/14 A2989 RMK A01 T03330143  RH  032%=      5-min Rain = 0
KEA1 210159Z 15012KT 33/14 A2989 RMK A01 T03320143  RH  032%=      5-min Rain = 0
KEA1 210200Z 15012KT 33/14 A2989 RMK A01 T03310143  RH  032%=      5-min Rain = 0
KEA1 210201Z 15014KT 33/14 A2989 RMK A01 T03300143  RH  032%=      5-min Rain = 0
KEA1 210202Z 15014KT 33/14 A2988 RMK A01 T03300143  RH  032%=      5-min Rain = 0
KEA1 210203Z 15013KT 33/14 A2989 RMK A01 T03300143  RH  032%=      5-min Rain = 0
KEA1 210204Z 15014KT 33/14 A2989 RMK A01 T03290144  RH  033%=      5-min Rain = 0
KEA1 210205Z 15013KT 33/14 A2989 RMK A01 T03290143  RH  033%=      5-min Rain = 0
KEA1 210206Z 15013KT 33/14 A2989 RMK A01 T03290144  RH  033%=      5-min Rain = 0
KEA1 210207Z 15013KT 33/14 A2989 RMK A01 T03280144  RH  033%=      5-min Rain = 0
KEA1 210208Z 15014KT 33/14 A2988 RMK A01 T03270143  RH  033%=      5-min Rain = 0
KEA1 210209Z 15014KT 33/14 A2989 RMK A01 T03280144  RH  033%=      5-min Rain = 0
KEA1 210210Z 15015KT 33/14 A2988 RMK A01 T03270144  RH  033%=      5-min Rain = 0
KEA1 210211Z 15015KT 33/14 A2988 RMK A01 T03270144  RH  033%=      5-min Rain = 0
KEA1 210212Z 15014KT 33/14 A2988 RMK A01 T03270143  RH  033%=      5-min Rain = 0
KEA1 210213Z 15015KT 33/14 A2988 RMK A01 T03270143  RH  033%=      5-min Rain = 0
KEA1 210214Z 15016KT 33/14 A2988 RMK A01 T03270143  RH  033%=      5-min Rain = 0
KEA1 210215Z 15015KT 33/14 A2988 RMK A01 T03270143  RH  033%=      5-min Rain = 0
KEA1 210216Z 15015KT 33/14 A2988 RMK A01 T03270143  RH  033%=      5-min Rain = 0
KEA1 210217Z 15016KT 33/14 A2988 RMK A01 T03270143  RH  033%=      5-min Rain = 0
KEA1 210218Z 15016KT 33/14 A2988 RMK A01 T03270143  RH  033%=      5-min Rain = 0
KEA1 210219Z 15014KT 33/14 A2988 RMK A01 T03270143  RH  033%=      5-min Rain = 0
KEA1 210220Z 15013KT 33/14 A2988 RMK A01 T03260143  RH  033%=      5-min Rain = 0
KEA1 210221Z 15015KT 33/14 A2988 RMK A01 T03250143  RH  033%=      5-min Rain = 0
KEA1 210222Z 15015KT 32/14 A2989 RMK A01 T03240142  RH  033%=      5-min Rain = 0
KEA1 210223Z 15015KT 33/14 A2989 RMK A01 T03250143  RH  033%=      5-min Rain = 0
KEA1 210224Z 15013KT 32/14 A2989 RMK A01 T03240143  RH  033%=      5-min Rain = 0
KEA1 210225Z 15014KT 32/14 A2989 RMK A01 T03240142  RH  033%=      5-min Rain = 0
KEA1 210226Z 15013KT 32/14 A2989 RMK A01 T03240142  RH  033%=      5-min Rain = 0
KEA1 210227Z 15011KT 32/14 A2989 RMK A01 T03230142  RH  034%=      5-min Rain = 0
KEA1 210228Z 15012KT 32/14 A2989 RMK A01 T03210142  RH  034%=      5-min Rain = 0
KEA1 210229Z 15013KT 32/14 A2989 RMK A01 T03200142  RH  034%=      5-min Rain = 0
KEA1 210230Z 15013KT 32/14 A2989 RMK A01 T03200142  RH  034%=      5-min Rain = 0
KEA1 210231Z 15013KT 32/14 A2989 RMK A01 T03200142  RH  034%=      5-min Rain = 0
KEA1 210232Z 14013KT 32/14 A2989 RMK A01 T03200142  RH  034%=      5-min Rain = 0
KEA1 210233Z 14013KT 32/14 A2989 RMK A01 T03200142  RH  034%=      5-min Rain = 0
KEA1 210234Z 14013KT 32/14 A2989 RMK A01 T03190142  RH  034%=      5-min Rain = 0
KEA1 210235Z 15013KT 32/14 A2989 RMK A01 T03190142  RH  034%=      5-min Rain = 0
KEA1 210236Z 15012KT 32/14 A2989 RMK A01 T03190142  RH  034%=      5-min Rain = 0
KEA1 210237Z 15011KT 32/14 A2989 RMK A01 T03180142  RH  034%=      5-min Rain = 0
KEA1 210238Z 15013KT 32/14 A2989 RMK A01 T03170142  RH  035%=      5-min Rain = 0
KEA1 210239Z 15013KT 32/14 A2989 RMK A01 T03160142  RH  035%=      5-min Rain = 0
KEA1 210240Z 15013KT 32/14 A2989 RMK A01 T03160141  RH  035%=      5-min Rain = 0
KEA1 210241Z 15013KT 32/14 A2989 RMK A01 T03160142  RH  035%=      5-min Rain = 0
KEA1 210242Z 15012KT 32/14 A2989 RMK A01 T03150141  RH  035%=      5-min Rain = 0
KEA1 210243Z 15013KT 32/14 A2989 RMK A01 T03150141  RH  035%=      5-min Rain = 0
KEA1 210244Z 15012KT 31/14 A2989 RMK A01 T03140141  RH  035%=      5-min Rain = 0
KEA1 210245Z 15012KT 31/14 A2989 RMK A01 T03140141  RH  035%=      5-min Rain = 0
KEA1 210246Z 15013KT 31/14 A2989 RMK A01 T03140141  RH  035%=      5-min Rain = 0
KEA1 210247Z 15013KT 31/14 A2989 RMK A01 T03140142  RH  035%=      5-min Rain = 0
KEA1 210248Z 15013KT 31/14 A2989 RMK A01 T03130141  RH  035%=      5-min Rain = 0
KEA1 210249Z 15013KT 31/14 A2989 RMK A01 T03130141  RH  035%=      5-min Rain = 0
KEA1 210250Z 15013KT 31/14 A2989 RMK A01 T03130141  RH  035%=      5-min Rain = 0
KEA1 210251Z 15013KT 31/14 A2989 RMK A01 T03130141  RH  035%=      5-min Rain = 0
KEA1 210252Z 15012KT 31/14 A2989 RMK A01 T03130141  RH  035%=      5-min Rain = 0
KEA1 210253Z 15013KT 31/14 A2989 RMK A01 T03120141  RH  035%=      5-min Rain = 0
KEA1 210254Z 15013KT 31/14 A299 RMK A01 T03120140  RH  035%=      5-min Rain = 0
KEA1 210255Z 15013KT 31/14 A299 RMK A01 T03120140  RH  035%=      5-min Rain = 0
KEA1 210256Z 15013KT 31/14 A299 RMK A01 T03120140  RH  035%=      5-min Rain = 0
KEA1 210257Z 15014KT 31/14 A299 RMK A01 T03120140  RH  035%=      5-min Rain = 0
KEA1 210258Z 15013KT 31/14 A299 RMK A01 T03110140  RH  035%=      5-min Rain = 0
KEA1 210259Z 15013KT 31/14 A299 RMK A01 T03120140  RH  035%=      5-min Rain = 0
KEA1 210300Z 15014KT 31/14 A299 RMK A01 T03110140  RH  035%=      5-min Rain = 0
KEA1 210301Z 15012KT 31/14 A299 RMK A01 T03110140  RH  035%=      5-min Rain = 0
KEA1 210302Z 15014KT 31/14 A299 RMK A01 T03110140  RH  035%=      5-min Rain = 0
KEA1 210303Z 15013KT 31/14 A299 RMK A01 T03110140  RH  035%=      5-min Rain = 0
KEA1 210304Z 15013KT 31/14 A299 RMK A01 T03110140  RH  035%=      5-min Rain = 0
KEA1 210305Z 15013KT 31/14 A299 RMK A01 T03110140  RH  035%=      5-min Rain = 0
KEA1 210306Z 15013KT 31/14 A299 RMK A01 T03110140  RH  035%=      5-min Rain = 0
KEA1 210307Z 15013KT 31/14 A299 RMK A01 T03110139  RH  035%=      5-min Rain = 0
KEA1 210308Z 15013KT 31/14 A299 RMK A01 T03100139  RH  035%=      5-min Rain = 0
KEA1 210309Z 15012KT 31/14 A299 RMK A01 T03100139  RH  035%=      5-min Rain = 0
KEA1 210310Z 15013KT 31/14 A299 RMK A01 T03100139  RH  035%=      5-min Rain = 0
KEA1 210311Z 15014KT 31/14 A299 RMK A01 T03090139  RH  035%=      5-min Rain = 0
KEA1 210312Z 15013KT 31/14 A299 RMK A01 T03090139  RH  035%=      5-min Rain = 0
KEA1 210313Z 15012KT 31/14 A299 RMK A01 T03090139  RH  035%=      5-min Rain = 0
KEA1 210314Z 15013KT 31/14 A299 RMK A01 T03090139  RH  035%=      5-min Rain = 0
KEA1 210315Z 15014KT 31/14 A299 RMK A01 T03090138  RH  035%=      5-min Rain = 0
KEA1 210316Z 15013KT 31/14 A299 RMK A01 T03090139  RH  035%=      5-min Rain = 0
KEA1 210317Z 15014KT 31/14 A299 RMK A01 T03090138  RH  035%=      5-min Rain = 0
KEA1 210318Z 15014KT 31/14 A299 RMK A01 T03090138  RH  035%=      5-min Rain = 0
KEA1 210319Z 15013KT 31/14 A299 RMK A01 T03090139  RH  035%=      5-min Rain = 0
KEA1 210320Z 15013KT 31/14 A299 RMK A01 T03080138  RH  035%=      5-min Rain = 0
KEA1 210321Z 15013KT 31/14 A2991 RMK A01 T03080138  RH  036%=      5-min Rain = 0
KEA1 210322Z 15013KT 31/14 A2991 RMK A01 T03080138  RH  035%=      5-min Rain = 0
KEA1 210323Z 15015KT 31/14 A2991 RMK A01 T03080138  RH  035%=      5-min Rain = 0
KEA1 210324Z 15013KT 31/14 A2991 RMK A01 T03080137  RH  035%=      5-min Rain = 0
KEA1 210325Z 15014KT 31/14 A2991 RMK A01 T03080138  RH  035%=      5-min Rain = 0
KEA1 210326Z 15013KT 31/14 A2991 RMK A01 T03070137  RH  035%=      5-min Rain = 0
KEA1 210327Z 15012KT 31/14 A2991 RMK A01 T03080138  RH  035%=      5-min Rain = 0
KEA1 210328Z 15013KT 31/14 A2991 RMK A01 T03070137  RH  035%=      5-min Rain = 0
KEA1 210329Z 15013KT 31/14 A2991 RMK A01 T03070137  RH  036%=      5-min Rain = 0
KEA1 210330Z 15011G16KT 31/14 A2991 RMK A01 T03070137  RH  036%=      5-min Rain = 0
KEA1 210331Z 15011KT 31/14 A2991 RMK A01 T03070137  RH  036%=      5-min Rain = 0
KEA1 210332Z 15012KT 31/14 A2992 RMK A01 T03060137  RH  036%=      5-min Rain = 0
KEA1 210333Z 15012KT 31/14 A2992 RMK A01 T03050137  RH  036%=      5-min Rain = 0
KEA1 210334Z 15013KT 30/14 A2992 RMK A01 T03040137  RH  036%=      5-min Rain = 0
KEA1 210335Z 15013KT 31/14 A2992 RMK A01 T03050137  RH  036%=      5-min Rain = 0
KEA1 210336Z 15012KT 31/14 A2992 RMK A01 T03050137  RH  036%=      5-min Rain = 0
KEA1 210337Z 15011KT 31/14 A2992 RMK A01 T03050137  RH  036%=      5-min Rain = 0
KEA1 210338Z 15013KT 30/14 A2992 RMK A01 T03040137  RH  036%=      5-min Rain = 0
KEA1 210339Z 15012KT 30/14 A2992 RMK A01 T03040137  RH  036%=      5-min Rain = 0
KEA1 210340Z 14014KT 30/14 A2992 RMK A01 T03030137  RH  036%=      5-min Rain = 0
KEA1 210341Z 15013KT 30/14 A2992 RMK A01 T03040137  RH  036%=      5-min Rain = 0
KEA1 210342Z 15012KT 30/14 A2992 RMK A01 T03040137  RH  036%=      5-min Rain = 0
KEA1 210343Z 15012KT 30/14 A2992 RMK A01 T03040137  RH  036%=      5-min Rain = 0
KEA1 210344Z 15013KT 30/14 A2992 RMK A01 T03030137  RH  036%=      5-min Rain = 0
KEA1 210345Z 15011KT 30/14 A2992 RMK A01 T03030137  RH  036%=      5-min Rain = 0
KEA1 210346Z 15012KT 30/14 A2992 RMK A01 T03020137  RH  037%=      5-min Rain = 0
KEA1 210347Z 15012KT 30/14 A2992 RMK A01 T03010137  RH  037%=      5-min Rain = 0
KEA1 210348Z 14011KT 30/14 A2992 RMK A01 T03010137  RH  037%=      5-min Rain = 0
KEA1 210349Z 15011KT 30/14 A2992 RMK A01 T03010137  RH  037%=      5-min Rain = 0
KEA1 210350Z 15012KT 30/14 A2992 RMK A01 T03000137  RH  037%=      5-min Rain = 0
KEA1 210351Z 15011KT 30/14 A2992 RMK A01 T03000137  RH  037%=      5-min Rain = 0
KEA1 210352Z 15011KT 30/14 A2992 RMK A01 T03000137  RH  037%=      5-min Rain = 0
KEA1 210353Z 15011KT 30/14 A2992 RMK A01 T02990137  RH  037%=      5-min Rain = 0
KEA1 210354Z 15011KT 30/14 A2993 RMK A01 T02980137  RH  037%=      5-min Rain = 0
KEA1 210355Z 15012KT 30/14 A2993 RMK A01 T02980137  RH  037%=      5-min Rain = 0
KEA1 210356Z 15012KT 30/14 A2993 RMK A01 T02980137  RH  037%=      5-min Rain = 0
KEA1 210357Z 15011KT 30/14 A2993 RMK A01 T02980137  RH  037%=      5-min Rain = 0
KEA1 210358Z 15011KT 30/14 A2993 RMK A01 T02970137  RH  038%=      5-min Rain = 0
KEA1 210359Z 15011KT 30/14 A2993 RMK A01 T02960137  RH  038%=      5-min Rain = 0
KEA1 210400Z 15011KT 30/14 A2993 RMK A01 T02960137  RH  038%=      5-min Rain = 0
KEA1 210401Z 15011KT 30/14 A2993 RMK A01 T02960137  RH  038%=      5-min Rain = 0
KEA1 210402Z 15011KT 30/14 A2993 RMK A01 T02950137  RH  038%=      5-min Rain = 0
KEA1 210403Z 15011KT 29/14 A2993 RMK A01 T02940137  RH  038%=      5-min Rain = 0
KEA1 210404Z 15011KT 29/14 A2993 RMK A01 T02940137  RH  038%=      5-min Rain = 0
KEA1 210405Z 15012KT 29/14 A2993 RMK A01 T02930137  RH  038%=      5-min Rain = 0
KEA1 210406Z 15011KT 29/14 A2993 RMK A01 T02920137  RH  039%=      5-min Rain = 0
KEA1 210407Z 15010KT 29/14 A2993 RMK A01 T02920137  RH  039%=      5-min Rain = 0
KEA1 210408Z 15012KT 29/14 A2993 RMK A01 T02920137  RH  039%=      5-min Rain = 0
KEA1 210409Z 15011KT 29/14 A2993 RMK A01 T02910137  RH  039%=      5-min Rain = 0
KEA1 210410Z 15011KT 29/14 A2993 RMK A01 T02910137  RH  039%=      5-min Rain = 0
KEA1 210411Z 15011KT 29/14 A2993 RMK A01 T02910137  RH  039%=      5-min Rain = 0
KEA1 210412Z 14012KT 29/14 A2993 RMK A01 T02900137  RH  039%=      5-min Rain = 0
KEA1 210413Z 15010KT 29/14 A2993 RMK A01 T02900137  RH  039%=      5-min Rain = 0
KEA1 210414Z 15011KT 29/14 A2993 RMK A01 T02900137  RH  039%=      5-min Rain = 0
KEA1 210415Z 15011KT 29/14 A2993 RMK A01 T02900137  RH  039%=      5-min Rain = 0
KEA1 210416Z 15010KT 29/14 A2993 RMK A01 T02890137  RH  039%=      5-min Rain = 0
KEA1 210417Z 14010KT 29/14 A2993 RMK A01 T02890137  RH  039%=      5-min Rain = 0
KEA1 210418Z 14010KT 29/14 A2993 RMK A01 T02880137  RH  040%=      5-min Rain = 0
KEA1 210419Z 15011KT 29/14 A2993 RMK A01 T02880138  RH  040%=      5-min Rain = 0
KEA1 210420Z 14010KT 29/14 A2993 RMK A01 T02870137  RH  040%=      5-min Rain = 0
KEA1 210421Z 14010KT 29/14 A2993 RMK A01 T02860137  RH  040%=      5-min Rain = 0
KEA1 210422Z 14010KT 29/14 A2993 RMK A01 T02860138  RH  040%=      5-min Rain = 0
KEA1 210423Z 14010KT 29/14 A2994 RMK A01 T02850137  RH  040%=      5-min Rain = 0
KEA1 210424Z 15010KT 29/14 A2994 RMK A01 T02860138  RH  040%=      5-min Rain = 0
KEA1 210425Z 14009KT 29/14 A2994 RMK A01 T02850138  RH  040%=      5-min Rain = 0
KEA1 210426Z 14010KT 28/14 A2994 RMK A01 T02840138  RH  041%=      5-min Rain = 0
KEA1 210427Z 15010KT 28/14 A2994 RMK A01 T02840138  RH  041%=      5-min Rain = 0
KEA1 210428Z 15010KT 28/14 A2994 RMK A01 T02830138  RH  041%=      5-min Rain = 0
KEA1 210429Z 15010KT 28/14 A2994 RMK A01 T02820138  RH  041%=      5-min Rain = 0
KEA1 210430Z 14009KT 28/14 A2994 RMK A01 T02820138  RH  041%=      5-min Rain = 0
KEA1 210431Z 15009KT 28/14 A2994 RMK A01 T02810138  RH  041%=      5-min Rain = 0
KEA1 210432Z 15009KT 28/14 A2994 RMK A01 T02800138  RH  042%=      5-min Rain = 0
KEA1 210433Z 15010KT 28/14 A2994 RMK A01 T02800138  RH  042%=      5-min Rain = 0
KEA1 210434Z 15009KT 28/14 A2994 RMK A01 T02800138  RH  042%=      5-min Rain = 0
KEA1 210435Z 14009KT 28/14 A2994 RMK A01 T02790138  RH  042%=      5-min Rain = 0
KEA1 210436Z 14010KT 28/14 A2994 RMK A01 T02790138  RH  042%=      5-min Rain = 0
KEA1 210437Z 14010KT 28/14 A2994 RMK A01 T02790138  RH  042%=      5-min Rain = 0
KEA1 210438Z 14008KT 28/14 A2994 RMK A01 T02790138  RH  042%=      5-min Rain = 0
KEA1 210439Z 14010KT 28/14 A2994 RMK A01 T02770138  RH  042%=      5-min Rain = 0
KEA1 210440Z 14009KT 28/14 A2994 RMK A01 T02770138  RH  042%=      5-min Rain = 0
KEA1 210441Z 14009KT 28/14 A2994 RMK A01 T02770138  RH  043%=      5-min Rain = 0
KEA1 210442Z 14009KT 28/14 A2994 RMK A01 T02760138  RH  043%=      5-min Rain = 0
KEA1 210443Z 14009KT 28/14 A2994 RMK A01 T02750138  RH  043%=      5-min Rain = 0
KEA1 210444Z 15010KT 28/14 A2994 RMK A01 T02750138  RH  043%=      5-min Rain = 0
KEA1 210445Z 14009KT 28/14 A2994 RMK A01 T02750138  RH  043%=      5-min Rain = 0
KEA1 210446Z 14010KT 27/14 A2994 RMK A01 T02740138  RH  043%=      5-min Rain = 0
KEA1 210447Z 14010KT 27/14 A2994 RMK A01 T02730138  RH  043%=      5-min Rain = 0
KEA1 210448Z 15009KT 27/14 A2994 RMK A01 T02730138  RH  044%=      5-min Rain = 0
KEA1 210449Z 15010KT 27/14 A2994 RMK A01 T02720138  RH  044%=      5-min Rain = 0
KEA1 210450Z 14009KT 27/14 A2994 RMK A01 T02720139  RH  044%=      5-min Rain = 0
KEA1 210451Z 14009KT 27/14 A2994 RMK A01 T02710138  RH  044%=      5-min Rain = 0
KEA1 210452Z 14009KT 27/14 A2994 RMK A01 T02710139  RH  044%=      5-min Rain = 0
KEA1 210453Z 14009KT 27/14 A2994 RMK A01 T02710139  RH  044%=      5-min Rain = 0
KEA1 210454Z 14009KT 27/14 A2994 RMK A01 T02700138  RH  044%=      5-min Rain = 0
KEA1 210455Z 14009KT 27/14 A2994 RMK A01 T02700139  RH  044%=      5-min Rain = 0
KEA1 210456Z 14009KT 27/14 A2994 RMK A01 T02700139  RH  045%=      5-min Rain = 0
KEA1 210457Z 14008KT 27/14 A2994 RMK A01 T02690139  RH  045%=      5-min Rain = 0
KEA1 210458Z 14009KT 27/14 A2994 RMK A01 T02690139  RH  045%=      5-min Rain = 0
KEA1 210459Z 14008KT 27/14 A2994 RMK A01 T02690138  RH  045%=      5-min Rain = 0

Page generated in 0.0723 seconds.